
Distance (Route):
Temperature : 7.2°C
Humidity : 81.0%
Pressure : 0hPa| Receiver | Frames | First received | Last received |
|---|---|---|---|
| OE5DRO-10 | 131 | 2026-09-04 02:31:39 | 2026-09-04 03:20:25 |
| PETON7-10 | 131 | 2026-09-04 02:36:10 | 2026-09-04 03:24:20 |
| OE8JPQ-2 | 122 | 2026-09-04 02:25:56 | 2026-09-04 03:22:01 |
| OE3JTB-15 | 98 | 2026-09-04 02:27:53 | 2026-09-04 03:26:01 |
| PG1ADW-2 | 77 | 2026-09-04 02:42:01 | 2026-09-04 03:13:57 |
| S52SK | 63 | 2026-09-04 02:16:04 | 2026-09-04 03:49:38 |
| OE5DXL-15 | 36 | 2026-09-04 02:42:32 | 2026-09-04 03:15:08 |
| OM5KV | 27 | 2026-09-04 02:28:50 | 2026-09-04 02:41:05 |
| OE3OSB-13 | 16 | 2026-09-04 02:40:50 | 2026-09-04 03:31:34 |
| Receiver | Date | Latitude | Longitude | Direction | Speed | Altitude | Climb | Temperature | Humidity | Pressure | Voltage | Killtimer | Uptime | BKT | XDATA |
|---|---|---|---|---|---|---|---|---|---|---|---|---|---|---|---|
| S52SK | 2026-09-04 03:49:38 | 45.89984 | 16.14249 | 127° | 38km/h | 2664m | -3.5m/s | 7.2°C | 81.0% | 0hPa | 2.5V | 00:00:00 | 00:00:00 | 00:00:00 | |
| S52SK | 2026-09-04 03:49:32 | 45.90018 | 16.14192 | 131° | 44km/h | 2682m | -3.6m/s | 7.0°C | 82.3% | 0hPa | 2.5V | 00:00:00 | 00:00:00 | 00:00:00 | |
| S52SK | 2026-09-04 03:48:11 | 45.90618 | 16.13184 | 145° | 40km/h | 2968m | -3.5m/s | 4.8°C | 91.2% | 0hPa | 2.5V | 00:00:00 | 00:00:00 | 00:00:00 | |
| S52SK | 2026-09-04 03:48:06 | 45.90661 | 16.13138 | 143° | 42km/h | 2986m | -3.6m/s | 4.8°C | 91.3% | 0hPa | 2.5V | 00:00:00 | 00:00:00 | 00:00:00 | |
| S52SK | 2026-09-04 03:48:00 | 45.90704 | 16.13091 | 144° | 42km/h | 3001m | -3.3m/s | 4.6°C | 91.6% | 0hPa | 2.5V | 00:00:00 | 00:00:00 | 00:00:00 | |
| S52SK | 2026-09-04 03:46:37 | 45.91486 | 16.12263 | 152° | 47km/h | 3258m | -2.7m/s | 2.9°C | 91.1% | 0hPa | 2.5V | 00:00:00 | 00:00:00 | 00:00:00 | |
| S52SK | 2026-09-04 03:46:31 | 45.91547 | 16.12210 | 149° | 47km/h | 3276m | -3.1m/s | 2.7°C | 92.4% | 0hPa | 2.5V | 00:00:00 | 00:00:00 | 00:00:00 | |
| S52SK | 2026-09-04 03:45:09 | 45.92445 | 16.11311 | 148° | 47km/h | 3543m | -3.6m/s | 1.4°C | 82.3% | 0hPa | 2.5V | 00:00:00 | 00:00:00 | 00:00:00 | |
| S52SK | 2026-09-04 03:43:49 | 45.93313 | 16.10558 | 151° | 55km/h | 3807m | -3.7m/s | -0.6°C | 84.0% | 0hPa | 2.5V | 00:00:00 | 00:00:00 | 00:00:00 | |
| S52SK | 2026-09-04 03:43:43 | 45.93385 | 16.10497 | 149° | 55km/h | 3828m | -3.5m/s | -0.7°C | 84.2% | 0hPa | 2.5V | 00:00:00 | 00:00:00 | 00:00:00 | |
| S52SK | 2026-09-04 03:42:29 | 45.94102 | 16.09942 | 154° | 44km/h | 4092m | -2.8m/s | -2.8°C | 92.6% | 0hPa | 2.5V | 00:00:00 | 00:00:00 | 00:00:00 | |
| S52SK | 2026-09-04 03:42:23 | 45.94149 | 16.09906 | 152° | 40km/h | 4111m | -4.0m/s | -3.0°C | 93.5% | 0hPa | 2.5V | 00:00:00 | 00:00:00 | 00:00:00 | |
| S52SK | 2026-09-04 03:41:01 | 45.94943 | 16.09649 | 173° | 44km/h | 4435m | -4.0m/s | -3.8°C | 87.8% | 0hPa | 2.5V | 00:00:00 | 00:00:00 | 00:00:00 | |
| S52SK | 2026-09-04 03:40:56 | 45.95012 | 16.09632 | 169° | 47km/h | 4457m | -3.8m/s | -3.6°C | 78.5% | 0hPa | 2.5V | 00:00:00 | 00:00:00 | 00:00:00 | |
| S52SK | 2026-09-04 03:39:36 | 45.96018 | 16.09299 | 171° | 62km/h | 4760m | -4.0m/s | -4.4°C | 55.4% | 0hPa | 2.5V | 00:00:00 | 00:00:00 | 00:00:00 | |
| S52SK | 2026-09-04 03:39:29 | 45.96112 | 16.09270 | 169° | 62km/h | 4783m | -4.4m/s | -4.4°C | 62.1% | 0hPa | 2.5V | 00:00:00 | 00:00:00 | 00:00:00 | |
| S52SK | 2026-09-04 03:39:25 | 45.96191 | 16.09243 | 166° | 64km/h | 4802m | -3.9m/s | -4.5°C | 65.6% | 0hPa | 2.5V | 00:00:00 | 00:00:00 | 00:00:00 | |
| S52SK | 2026-09-04 03:38:04 | 45.97512 | 16.08670 | 160° | 75km/h | 5116m | -3.9m/s | -6.2°C | 81.2% | 0hPa | 2.5V | 00:00:00 | 00:00:00 | 00:00:00 | |
| S52SK | 2026-09-04 03:37:59 | 45.97616 | 16.08611 | 159° | 73km/h | 5140m | -3.9m/s | -6.3°C | 81.5% | 0hPa | 2.5V | 00:00:00 | 00:00:00 | 00:00:00 | |
| S52SK | 2026-09-04 03:36:31 | 45.99128 | 16.07725 | 157° | 68km/h | 5474m | -4.0m/s | -8.1°C | 80.1% | 0hPa | 2.5V | 00:00:00 | 00:00:00 | 00:00:00 | |
| S52SK | 2026-09-04 03:36:25 | 45.99227 | 16.07672 | 163° | 73km/h | 5495m | -3.8m/s | -8.3°C | 80.9% | 0hPa | 2.5V | 00:00:00 | 00:00:00 | 00:00:00 | |
| S52SK | 2026-09-04 03:35:08 | 46.00547 | 16.06836 | 157° | 71km/h | 5799m | -4.2m/s | -9.2°C | 70.1% | 0hPa | 2.5V | 00:00:00 | 00:00:00 | 00:00:00 | |
| S52SK | 2026-09-04 03:35:03 | 46.00632 | 16.06786 | 159° | 77km/h | 5818m | -3.7m/s | -9.3°C | 69.8% | 0hPa | 2.5V | 00:00:00 | 00:00:00 | 00:00:00 | |
| S52SK | 2026-09-04 03:34:57 | 46.00724 | 16.06730 | 156° | 80km/h | 5836m | -3.9m/s | -9.3°C | 66.8% | 0hPa | 2.5V | 00:00:00 | 00:00:00 | 00:00:00 | |
| S52SK | 2026-09-04 03:33:34 | 46.02095 | 16.05615 | 151° | 77km/h | 6158m | -3.8m/s | -10.2°C | 52.5% | 0hPa | 2.5V | 00:00:00 | 00:00:00 | 00:00:00 | |
| S52SK | 2026-09-04 03:33:29 | 46.02199 | 16.05536 | 155° | 80km/h | 6181m | -4.3m/s | -10.4°C | 51.9% | 0hPa | 2.5V | 00:00:00 | 00:00:00 | 00:00:00 | |
| S52SK | 2026-09-04 03:32:08 | 46.03674 | 16.04354 | 149° | 89km/h | 6493m | -4.3m/s | -12.6°C | 56.1% | 0hPa | 2.5V | 00:00:00 | 00:00:00 | 00:00:00 | |
| S52SK | 2026-09-04 03:32:02 | 46.03788 | 16.04247 | 146° | 88km/h | 6518m | -4.0m/s | -12.9°C | 56.6% | 0hPa | 2.5V | 00:00:00 | 00:00:00 | 00:00:00 | |
| OE3OSB-13 | 2026-09-04 03:31:34 | 46.04319 | 16.03818 | 152° | 89km/h | 6629m | -4.1m/s | -13.5°C | 52.7% | -1.0hPa | 2.5V | 00:00:00 | 00:00:00 | 00:00:00 | |
| OE3OSB-13 | 2026-09-04 03:31:03 | 46.05104 | 16.03235 | 153° | 97km/h | 6784m | -4.2m/s | -14.4°C | 47.7% | -1.0hPa | 2.5V | 00:00:00 | 00:00:00 | 00:00:00 | |
| S52SK | 2026-09-04 03:30:52 | 46.05170 | 16.03188 | 155° | 97km/h | 6796m | -4.4m/s | -14.4°C | 47.6% | 0hPa | 2.5V | 00:00:00 | 00:00:00 | 00:00:00 | |
| S52SK | 2026-09-04 03:30:47 | 46.05305 | 16.03089 | 153° | 100km/h | 6821m | -4.2m/s | -14.6°C | 48.7% | 0hPa | 2.5V | 00:00:00 | 00:00:00 | 00:00:00 | |
| S52SK | 2026-09-04 03:30:41 | 46.05418 | 16.02999 | 151° | 100km/h | 6841m | -4.2m/s | -14.8°C | 49.4% | 0hPa | 2.5V | 00:00:00 | 00:00:00 | 00:00:00 | |
| OE3OSB-13 | 2026-09-04 03:30:01 | 46.06404 | 16.02302 | 157° | 93km/h | 7031m | -4.5m/s | -16.1°C | 50.6% | -1.0hPa | 2.5V | 00:00:00 | 00:00:00 | 00:00:00 | |
| OE3OSB-13 | 2026-09-04 03:29:30 | 46.07016 | 16.01924 | 152° | 99km/h | 7141m | -4.4m/s | -16.8°C | 48.4% | -1.0hPa | 2.5V | 00:00:00 | 00:00:00 | 00:00:00 | |
| S52SK | 2026-09-04 03:29:24 | 46.07129 | 16.01842 | 155° | 100km/h | 7162m | -4.5m/s | -17.0°C | 48.9% | 0hPa | 2.5V | 00:00:00 | 00:00:00 | 00:00:00 | |
| S52SK | 2026-09-04 03:29:19 | 46.07262 | 16.01743 | 154° | 95km/h | 7188m | -4.6m/s | -17.1°C | 47.7% | 0hPa | 2.5V | 00:00:00 | 00:00:00 | 00:00:00 | |
| OE3OSB-13 | 2026-09-04 03:28:28 | 46.08367 | 16.00951 | 151° | 102km/h | 7407m | -4.7m/s | -18.5°C | 42.2% | -1.0hPa | 2.5V | 00:00:00 | 00:00:00 | 00:00:00 | |
| OE3OSB-13 | 2026-09-04 03:27:57 | 46.09042 | 16.00371 | 146° | 97km/h | 7542m | -4.5m/s | -19.4°C | 38.0% | -1.0hPa | 2.5V | 00:00:00 | 00:00:00 | 00:00:00 | |
| S52SK | 2026-09-04 03:27:55 | 46.09083 | 16.00332 | 148° | 99km/h | 7551m | -4.4m/s | -19.4°C | 37.8% | 0hPa | 2.5V | 00:00:00 | 00:00:00 | 00:00:00 | |
| S52SK | 2026-09-04 03:27:49 | 46.09208 | 16.00210 | 145° | 97km/h | 7577m | -5.0m/s | -19.6°C | 37.6% | 0hPa | 2.5V | 00:00:00 | 00:00:00 | 00:00:00 | |
| OE3OSB-13 | 2026-09-04 03:27:26 | 46.09682 | 15.99783 | 150° | 91km/h | 7686m | -4.6m/s | -20.6°C | 38.1% | -1.0hPa | 2.5V | 00:00:00 | 00:00:00 | 00:00:00 | |
| OE3OSB-13 | 2026-09-04 03:26:55 | 46.10339 | 15.99185 | 144° | 91km/h | 7823m | -4.5m/s | -21.7°C | 38.8% | -1.0hPa | 2.5V | 00:00:00 | 00:00:00 | 00:00:00 | |
| S52SK | 2026-09-04 03:26:27 | 46.10866 | 15.98735 | 151° | 95km/h | 7934m | -4.4m/s | -22.8°C | 41.6% | 0hPa | 2.5V | 00:00:00 | 00:00:00 | 00:00:00 | |
| OE3OSB-13 | 2026-09-04 03:26:24 | 46.10968 | 15.98652 | 151° | 91km/h | 7956m | -4.4m/s | -23.0°C | 41.8% | -1.0hPa | 2.5V | 00:00:00 | 00:00:00 | 00:00:00 | |
| S52SK | 2026-09-04 03:26:22 | 46.10988 | 15.98636 | 154° | 93km/h | 7960m | -4.3m/s | -23.0°C | 41.7% | 0hPa | 2.5V | 00:00:00 | 00:00:00 | 00:00:00 | |
| OE3JTB-15 | 2026-09-04 03:26:01 | 46.11451 | 15.98305 | 155° | 95km/h | 8060m | -4.6m/s | -23.8°C | 47.4% | 0hPa | 2.5V | 00:00:00 | 01:39:33 | 00:00:00 | |
| OE3OSB-13 | 2026-09-04 03:25:53 | 46.11652 | 15.98170 | 154° | 93km/h | 8102m | -5.1m/s | -24.2°C | 44.6% | -1.0hPa | 2.5V | 00:00:00 | 00:00:00 | 00:00:00 | |
| OE3JTB-15 | 2026-09-04 03:25:31 | 46.12092 | 15.97853 | 156° | 97km/h | 8204m | -4.0m/s | -25.1°C | 51.7% | 0hPa | 2.5V | 00:00:00 | 00:00:00 | 08:30:00 | |
| OE3OSB-13 | 2026-09-04 03:25:22 | 46.12314 | 15.97713 | 154° | 99km/h | 8251m | -4.5m/s | -25.6°C | 49.7% | -1.0hPa | 2.5V | 00:00:00 | 00:00:00 | 00:00:00 | |
| OE3JTB-15 | 2026-09-04 03:25:02 | 46.12733 | 15.97436 | 156° | 95km/h | 8345m | -5.9m/s | -26.4°C | 55.8% | 0hPa | 2.5V | 00:00:00 | 00:00:00 | 00:00:00 | |
| S52SK | 2026-09-04 03:24:55 | 46.12888 | 15.97340 | 158° | 97km/h | 8386m | -5.7m/s | -26.8°C | 52.1% | 0hPa | 2.5V | 00:00:00 | 00:00:00 | 00:00:00 | |
| OE3JTB-15 | 2026-09-04 03:24:33 | 46.13359 | 15.97014 | 153° | 93km/h | 8531m | -7.2m/s | -27.6°C | 46.6% | 0hPa | 2.5V | 00:00:00 | 01:38:05 | 00:00:00 | |
| PETON7-10 | 2026-09-04 03:24:20 | 46.13628 | 15.96801 | 152° | 91km/h | 8619m | -6.8m/s | -28.2°C | 42.1% | 0hPa | 2.5V | 00:00:00 | 00:00:00 | 00:00:00 | |
| PETON7-10 | 2026-09-04 03:24:05 | 46.13929 | 15.96561 | 152° | 91km/h | 8719m | -6.6m/s | -29.1°C | 42.8% | 0hPa | 2.7V | 00:00:00 | 00:00:00 | 00:00:00 | |
| PETON7-10 | 2026-09-04 03:23:50 | 46.14242 | 15.96329 | 154° | 91km/h | 8819m | -7.0m/s | -30.0°C | 45.0% | 0hPa | 2.7V | 00:00:00 | 01:37:22 | 00:00:00 | |
| OE3JTB-15 | 2026-09-04 03:23:49 | 46.14263 | 15.96314 | 156° | 89km/h | 8826m | -6.5m/s | -30.1°C | 45.2% | 0hPa | 2.7V | 00:00:00 | 00:00:00 | 00:00:00 | |
| PETON7-10 | 2026-09-04 03:23:35 | 46.14554 | 15.96107 | 152° | 88km/h | 8917m | -6.8m/s | -31.0°C | 48.0% | 0hPa | 2.5V | 00:00:00 | 00:00:00 | 08:30:00 | |
| PETON7-10 | 2026-09-04 03:23:18 | 46.14892 | 15.95851 | 154° | 91km/h | 9025m | -5.2m/s | -32.0°C | 52.1% | 0hPa | 2.5V | 00:00:00 | 00:00:00 | 00:00:00 | |
| OE3OSB-13 | 2026-09-04 03:23:17 | 46.14913 | 15.95836 | 153° | 91km/h | 9031m | -7.0m/s | -32.2°C | 47.6% | -1.0hPa | 2.5V | 00:00:00 | 00:00:00 | 00:00:00 | |
| OE3JTB-15 | 2026-09-04 03:22:49 | 46.15488 | 15.95429 | 155° | 93km/h | 9199m | -6.3m/s | -33.7°C | 58.1% | 0hPa | 2.5V | 00:00:00 | 01:36:21 | 00:00:00 | |
| PETON7-10 | 2026-09-04 03:22:48 | 46.15508 | 15.95414 | 155° | 91km/h | 9205m | -6.3m/s | -33.7°C | 58.3% | 0hPa | 2.5V | 00:00:00 | 00:00:00 | 00:00:00 | |
| PETON7-10 | 2026-09-04 03:22:33 | 46.15825 | 15.95208 | 159° | 93km/h | 9292m | -6.5m/s | -34.6°C | 59.0% | 0hPa | 2.7V | 00:00:00 | 00:00:00 | 00:00:00 | |
| OE3JTB-15 | 2026-09-04 03:22:20 | 46.16107 | 15.95027 | 155° | 95km/h | 9374m | -6.4m/s | -35.3°C | 58.0% | 0hPa | 2.7V | 00:00:00 | 00:00:00 | 00:00:00 | |
| PETON7-10 | 2026-09-04 03:22:18 | 46.16151 | 15.94999 | 156° | 93km/h | 9386m | -5.6m/s | -35.4°C | 58.4% | 0hPa | 2.7V | 00:00:00 | 01:35:50 | 00:00:00 | |
| PETON7-10 | 2026-09-04 03:22:03 | 46.16472 | 15.94780 | 155° | 97km/h | 9485m | -6.3m/s | -36.3°C | 61.9% | 0hPa | 2.7V | 00:00:00 | 00:00:00 | 00:00:00 | |
| OE8JPQ-2 | 2026-09-04 03:22:01 | 46.16516 | 15.94749 | 154° | 111km/h | 9498m | -7.1m/s | -36.4°C | 63.4% | 0hPa | 2.5V | 00:00:00 | 01:35:33 | 00:00:00 | |
| OE3JTB-15 | 2026-09-04 03:21:51 | 46.16737 | 15.94593 | 156° | 100km/h | 9560m | -7.3m/s | -36.9°C | 65.8% | 0hPa | 2.5V | 00:00:00 | 00:00:00 | 00:00:00 | |
| PETON7-10 | 2026-09-04 03:21:48 | 46.16804 | 15.94549 | 155° | 99km/h | 9581m | -7.2m/s | -37.1°C | 66.6% | 0hPa | 2.5V | 00:00:00 | 00:00:00 | 00:00:00 | |
| PETON7-10 | 2026-09-04 03:21:33 | 46.17146 | 15.94322 | 154° | 106km/h | 9682m | -6.4m/s | -38.1°C | 72.4% | 0hPa | 2.5V | 00:00:00 | 01:35:05 | 00:00:00 | |
| OE3JTB-15 | 2026-09-04 03:21:22 | 46.17410 | 15.94148 | 158° | 111km/h | 9753m | -7.4m/s | -38.7°C | 71.5% | 0hPa | 2.5V | 00:00:00 | 01:34:54 | 00:00:00 | |
| PETON7-10 | 2026-09-04 03:21:18 | 46.17511 | 15.94087 | 158° | 110km/h | 9780m | -5.7m/s | -38.9°C | 71.8% | 0hPa | 2.5V | 00:00:00 | 00:00:00 | 08:30:00 | |
| OE3OSB-13 | 2026-09-04 03:21:13 | 46.17638 | 15.94012 | 157° | 108km/h | 9806m | -6.2m/s | -39.0°C | 60.0% | -1.0hPa | 2.7V | 00:00:00 | 00:00:00 | 00:00:00 | |
| OE3JTB-15 | 2026-09-04 03:20:53 | 46.18158 | 15.93692 | 157° | 113km/h | 9915m | -4.1m/s | -39.8°C | 59.9% | 0hPa | 2.7V | 00:00:00 | 00:00:00 | 08:30:00 | |
| PETON7-10 | 2026-09-04 03:20:48 | 46.18290 | 15.93611 | 159° | 113km/h | 9945m | -7.9m/s | -40.0°C | 55.8% | 0hPa | 2.7V | 00:00:00 | 01:34:20 | 00:00:00 | |
| PETON7-10 | 2026-09-04 03:20:33 | 46.18694 | 15.93389 | 162° | 111km/h | 10030m | -4.4m/s | -40.6°C | 51.8% | 0hPa | 2.7V | 00:00:00 | 00:00:00 | 00:00:00 | |
| OE5DRO-10 | 2026-09-04 03:20:25 | 46.18908 | 15.93282 | 161° | 111km/h | 10065m | -4.3m/s | -40.9°C | 49.4% | 0hPa | 2.5V | 00:00:00 | 00:00:00 | 00:00:00 | |
| OE3JTB-15 | 2026-09-04 03:20:24 | 46.18935 | 15.93268 | 161° | 111km/h | 10070m | -4.9m/s | -40.9°C | 48.7% | 0hPa | 2.5V | 00:00:00 | 00:00:00 | 00:00:00 | |
| PETON7-10 | 2026-09-04 03:20:18 | 46.19096 | 15.93192 | 163° | 111km/h | 10096m | -4.8m/s | -41.1°C | 48.5% | 0hPa | 2.5V | 00:00:00 | 00:00:00 | 00:00:00 | |
| OE5DRO-10 | 2026-09-04 03:20:06 | 46.19419 | 15.93047 | 163° | 113km/h | 10147m | -4.0m/s | -41.5°C | 46.0% | 0hPa | 2.5V | 00:00:00 | 00:00:00 | 08:30:00 | |
| PETON7-10 | 2026-09-04 03:20:03 | 46.19500 | 15.93012 | 163° | 113km/h | 10161m | -4.9m/s | -41.6°C | 45.5% | 0hPa | 2.5V | 00:00:00 | 01:33:35 | 00:00:00 | |
| OE3JTB-15 | 2026-09-04 03:19:55 | 46.19719 | 15.92914 | 164° | 117km/h | 10197m | -3.8m/s | -41.9°C | 44.9% | 0hPa | 2.5V | 00:00:00 | 01:33:27 | 00:00:00 | |
| PETON7-10 | 2026-09-04 03:19:48 | 46.19914 | 15.92832 | 165° | 115km/h | 10222m | -3.8m/s | -42.2°C | 45.2% | 0hPa | 2.5V | 00:00:00 | 00:00:00 | 00:00:00 | |
| OE5DRO-10 | 2026-09-04 03:19:47 | 46.19943 | 15.92821 | 165° | 117km/h | 10226m | -4.1m/s | -42.2°C | 45.2% | 0hPa | 2.5V | 00:00:00 | 00:00:00 | 00:00:00 | |
| PETON7-10 | 2026-09-04 03:19:33 | 46.20336 | 15.92652 | 164° | 117km/h | 10278m | -3.2m/s | -42.6°C | 46.0% | 0hPa | 2.5V | 00:00:00 | 00:00:00 | 00:00:00 | |
| OE8JPQ-2 | 2026-09-04 03:19:28 | 46.20480 | 15.92590 | 163° | 117km/h | 10296m | -2.3m/s | -42.8°C | 46.1% | 0hPa | 2.5V | 00:00:00 | 00:00:00 | 00:00:00 | |
| OE3JTB-15 | 2026-09-04 03:19:26 | 46.20536 | 15.92564 | 163° | 117km/h | 10303m | -4.2m/s | -42.8°C | 46.3% | 0hPa | 2.7V | 00:00:00 | 00:00:00 | 00:00:00 | |
| PETON7-10 | 2026-09-04 03:19:18 | 46.20763 | 15.92466 | 165° | 117km/h | 10336m | -4.1m/s | -43.1°C | 48.2% | 0hPa | 2.5V | 00:00:00 | 01:32:50 | 00:00:00 | |
| OE5DRO-10 | 2026-09-04 03:19:09 | 46.21017 | 15.92359 | 164° | 117km/h | 10370m | -4.4m/s | -43.5°C | 50.4% | 0hPa | 2.5V | 00:00:00 | 00:00:00 | 00:00:00 | |
| PETON7-10 | 2026-09-04 03:19:03 | 46.21187 | 15.92285 | 163° | 115km/h | 10392m | -3.3m/s | -43.7°C | 50.5% | 0hPa | 2.5V | 00:00:00 | 00:00:00 | 08:30:00 | |
| OE3JTB-15 | 2026-09-04 03:18:57 | 46.21355 | 15.92212 | 164° | 115km/h | 10417m | -4.0m/s | -43.9°C | 50.9% | 0hPa | 2.5V | 00:00:00 | 00:00:00 | 00:00:00 | |
| OE5DRO-10 | 2026-09-04 03:18:50 | 46.21550 | 15.92127 | 165° | 115km/h | 10444m | -3.4m/s | -44.1°C | 50.9% | 0hPa | 2.5V | 00:00:00 | 00:00:00 | 00:00:00 | |
| PETON7-10 | 2026-09-04 03:18:48 | 46.21607 | 15.92103 | 164° | 115km/h | 10452m | -4.2m/s | -44.2°C | 50.5% | 0hPa | 2.5V | 00:00:00 | 00:00:00 | 00:00:00 | |
| PETON7-10 | 2026-09-04 03:18:33 | 46.22026 | 15.91918 | 163° | 115km/h | 10508m | -4.4m/s | -44.7°C | 51.5% | 0hPa | 2.5V | 00:00:00 | 01:32:05 | 00:00:00 | |
| OE5DRO-10 | 2026-09-04 03:18:31 | 46.22082 | 15.91895 | 165° | 115km/h | 10516m | -4.2m/s | -44.8°C | 51.8% | 0hPa | 2.5V | 00:00:00 | 00:00:00 | 00:00:00 | |
| OE3JTB-15 | 2026-09-04 03:18:28 | 46.22166 | 15.91858 | 163° | 115km/h | 10527m | -4.3m/s | -44.9°C | 52.1% | 0hPa | 2.5V | 00:00:00 | 01:32:00 | 00:00:00 | |
| PETON7-10 | 2026-09-04 03:18:18 | 46.22443 | 15.91732 | 164° | 117km/h | 10563m | -3.4m/s | -45.3°C | 52.8% | 0hPa | 2.5V | 00:00:00 | 00:00:00 | 00:00:00 | |
| OE5DRO-10 | 2026-09-04 03:18:12 | 46.22612 | 15.91656 | 162° | 115km/h | 10587m | -3.9m/s | -45.5°C | 54.2% | 0hPa | 2.5V | 00:00:00 | 00:00:00 | 00:00:00 | |
| OE3OSB-13 | 2026-09-04 03:18:07 | 46.22779 | 15.91579 | 162° | 115km/h | 10607m | -3.8m/s | -45.8°C | 47.0% | -1.0hPa | 2.5V | 00:00:00 | 00:00:00 | 00:00:00 | |
| OE3JTB-15 | 2026-09-04 03:17:59 | 46.22974 | 15.91491 | 164° | 115km/h | 10633m | -3.5m/s | -45.9°C | 53.7% | 0hPa | 2.5V | 00:00:00 | 00:00:00 | 00:00:00 | |
| OE5DRO-10 | 2026-09-04 03:17:53 | 46.23142 | 15.91415 | 164° | 113km/h | 10654m | -4.2m/s | -46.2°C | 54.5% | 0hPa | 2.7V | 00:00:00 | 00:00:00 | 00:00:00 | |
| PETON7-10 | 2026-09-04 03:17:48 | 46.23280 | 15.91358 | 164° | 113km/h | 10671m | -4.2m/s | -46.3°C | 54.8% | 0hPa | 2.7V | 00:00:00 | 01:31:20 | 00:00:00 | |
| OE5DRO-10 | 2026-09-04 03:17:34 | 46.23664 | 15.91188 | 164° | 111km/h | 10722m | -3.8m/s | -46.8°C | 55.5% | 0hPa | 2.7V | 00:00:00 | 00:00:00 | 00:00:00 | |
| PETON7-10 | 2026-09-04 03:17:33 | 46.23692 | 15.91176 | 163° | 111km/h | 10726m | -3.6m/s | -46.8°C | 55.7% | 0hPa | 2.7V | 00:00:00 | 00:00:00 | 00:00:00 | |
| OE3JTB-15 | 2026-09-04 03:17:30 | 46.23775 | 15.91137 | 162° | 111km/h | 10737m | -2.4m/s | -46.9°C | 55.8% | 0hPa | 2.5V | 00:00:00 | 00:00:00 | 00:00:00 | |
| PETON7-10 | 2026-09-04 03:17:18 | 46.24097 | 15.90992 | 164° | 111km/h | 10782m | -3.5m/s | -47.3°C | 56.4% | 0hPa | 2.5V | 00:00:00 | 00:00:00 | 00:00:00 | |
| OE5DRO-10 | 2026-09-04 03:17:15 | 46.24180 | 15.90956 | 163° | 113km/h | 10791m | -3.1m/s | -47.4°C | 56.8% | 0hPa | 2.5V | 00:00:00 | 00:00:00 | 08:30:00 | |
| PETON7-10 | 2026-09-04 03:17:03 | 46.24506 | 15.90818 | 165° | 113km/h | 10832m | -4.4m/s | -47.8°C | 56.5% | 0hPa | 2.7V | 00:00:00 | 01:30:35 | 00:00:00 | |
| OE3JTB-15 | 2026-09-04 03:17:01 | 46.24561 | 15.90795 | 165° | 115km/h | 10840m | -3.9m/s | -47.9°C | 56.9% | 0hPa | 2.7V | 00:00:00 | 01:30:33 | 00:00:00 | |
| OE5DRO-10 | 2026-09-04 03:16:56 | 46.24699 | 15.90736 | 163° | 115km/h | 10862m | -3.8m/s | -48.1°C | 56.5% | 0hPa | 2.7V | 00:00:00 | 00:00:00 | 00:00:00 | |
| PETON7-10 | 2026-09-04 03:16:48 | 46.24919 | 15.90644 | 164° | 115km/h | 10899m | -5.2m/s | -48.4°C | 55.3% | 0hPa | 2.7V | 00:00:00 | 00:00:00 | 08:30:00 | |
| OE5DRO-10 | 2026-09-04 03:16:37 | 46.25226 | 15.90515 | 164° | 115km/h | 10951m | -4.8m/s | -48.9°C | 56.8% | 0hPa | 2.7V | 00:00:00 | 00:00:00 | 00:00:00 | |
| PETON7-10 | 2026-09-04 03:16:33 | 46.25338 | 15.90469 | 166° | 115km/h | 10970m | -5.1m/s | -49.1°C | 55.7% | 0hPa | 2.7V | 00:00:00 | 00:00:00 | 00:00:00 | |
| OE3JTB-15 | 2026-09-04 03:16:32 | 46.25366 | 15.90459 | 166° | 115km/h | 10974m | -4.1m/s | -49.1°C | 55.4% | 0hPa | 2.7V | 00:00:00 | 00:00:00 | 08:30:00 | |
| OE8JPQ-2 | 2026-09-04 03:16:31 | 46.25395 | 15.90449 | 166° | 113km/h | 10978m | -3.8m/s | -49.2°C | 54.7% | 0hPa | 2.7V | 00:00:00 | 00:00:00 | 00:00:00 | |
| OE5DRO-10 | 2026-09-04 03:16:18 | 46.25758 | 15.90303 | 165° | 113km/h | 11032m | -3.7m/s | -49.6°C | 52.6% | 0hPa | 2.7V | 00:00:00 | 00:00:00 | 00:00:00 | |
| OE3JTB-15 | 2026-09-04 03:16:03 | 46.26176 | 15.90132 | 165° | 111km/h | 11104m | -5.1m/s | -50.3°C | 53.0% | 0hPa | 2.7V | 00:00:00 | 00:00:00 | 00:00:00 | |
| OE3OSB-13 | 2026-09-04 03:16:02 | 46.26203 | 15.90121 | 164° | 110km/h | 11109m | -5.0m/s | -50.4°C | 44.8% | -1.0hPa | 2.7V | 00:00:00 | 00:00:00 | 00:00:00 | |
| PETON7-10 | 2026-09-04 03:15:48 | 46.26584 | 15.89961 | 165° | 113km/h | 11171m | -3.3m/s | -50.8°C | 49.1% | 0hPa | 2.7V | 00:00:00 | 00:00:00 | 00:00:00 | |
| OE5DRO-10 | 2026-09-04 03:15:40 | 46.26801 | 15.89870 | 166° | 113km/h | 11198m | -2.9m/s | -51.0°C | 49.5% | 0hPa | 2.7V | 00:00:00 | 00:00:00 | 00:00:00 | |
| OE3JTB-15 | 2026-09-04 03:15:34 | 46.26966 | 15.89804 | 164° | 113km/h | 11218m | -3.5m/s | -51.2°C | 49.4% | 0hPa | 2.7V | 00:00:00 | 01:29:06 | 00:00:00 | |
| PETON7-10 | 2026-09-04 03:15:33 | 46.26993 | 15.89792 | 164° | 111km/h | 11222m | -2.6m/s | -51.3°C | 49.6% | 0hPa | 2.7V | 00:00:00 | 01:29:05 | 00:00:00 | |
| OE5DRO-10 | 2026-09-04 03:15:21 | 46.27322 | 15.89660 | 164° | 113km/h | 11262m | -2.9m/s | -51.6°C | 48.0% | 0hPa | 2.7V | 00:00:00 | 00:00:00 | 00:00:00 | |
| PETON7-10 | 2026-09-04 03:15:18 | 46.27403 | 15.89627 | 165° | 113km/h | 11271m | -3.8m/s | -51.7°C | 47.1% | 0hPa | 2.5V | 00:00:00 | 00:00:00 | 00:00:00 | |
| OE5DXL-15 | 2026-09-04 03:15:08 | 46.27681 | 15.89520 | 166° | 115km/h | 11303m | -3.1m/s | -52.0°C | 45.9% | 0hPa | 2.7V | 00:00:00 | 00:00:00 | 00:00:00 | |
| OE3JTB-15 | 2026-09-04 03:15:05 | 46.27764 | 15.89489 | 166° | 115km/h | 11314m | -3.3m/s | -52.1°C | 45.7% | 0hPa | 2.7V | 00:00:00 | 00:00:00 | 00:00:00 | |
| OE5DRO-10 | 2026-09-04 03:15:02 | 46.27847 | 15.89456 | 164° | 115km/h | 11325m | -3.7m/s | -52.2°C | 45.0% | 0hPa | 2.5V | 00:00:00 | 00:00:00 | 00:00:00 | |
| PETON7-10 | 2026-09-04 03:14:48 | 46.28239 | 15.89310 | 165° | 115km/h | 11372m | -2.6m/s | -52.6°C | 41.6% | 0hPa | 2.5V | 00:00:00 | 01:28:20 | 00:00:00 | |
| OE8JPQ-2 | 2026-09-04 03:14:43 | 46.28379 | 15.89261 | 167° | 115km/h | 11388m | -4.0m/s | -52.7°C | 40.8% | 0hPa | 2.5V | 00:00:00 | 01:28:15 | 00:00:00 | |
| OE5DXL-15 | 2026-09-04 03:14:38 | 46.28522 | 15.89211 | 166° | 117km/h | 11405m | -2.9m/s | -52.9°C | 40.1% | 0hPa | 2.5V | 00:00:00 | 00:00:00 | 00:00:00 | |
| OE3JTB-15 | 2026-09-04 03:14:36 | 46.28579 | 15.89191 | 167° | 117km/h | 11412m | -2.4m/s | -52.9°C | 39.9% | 0hPa | 2.5V | 00:00:00 | 00:00:00 | 00:00:00 | |
| PETON7-10 | 2026-09-04 03:14:33 | 46.28665 | 15.89161 | 167° | 115km/h | 11423m | -4.5m/s | -53.0°C | 39.6% | 0hPa | 2.5V | 00:00:00 | 00:00:00 | 08:30:00 | |
| OE5DRO-10 | 2026-09-04 03:14:24 | 46.28921 | 15.89074 | 168° | 117km/h | 11456m | -2.7m/s | -53.3°C | 40.1% | 0hPa | 2.5V | 00:00:00 | 00:00:00 | 08:30:00 | |
| OE8JPQ-2 | 2026-09-04 03:14:19 | 46.29063 | 15.89026 | 168° | 117km/h | 11473m | -4.2m/s | -53.4°C | 39.3% | 0hPa | 2.5V | 00:00:00 | 00:00:00 | 08:30:00 | |
| PETON7-10 | 2026-09-04 03:14:18 | 46.29092 | 15.89017 | 168° | 119km/h | 11477m | -3.9m/s | -53.4°C | 39.2% | 0hPa | 2.5V | 00:00:00 | 00:00:00 | 00:00:00 | |
| OE5DXL-15 | 2026-09-04 03:14:08 | 46.29382 | 15.88934 | 169° | 119km/h | 11510m | -3.2m/s | -53.7°C | 35.7% | 0hPa | 2.5V | 00:00:00 | 00:00:00 | 08:30:00 | |
| OE3JTB-15 | 2026-09-04 03:14:07 | 46.29411 | 15.88925 | 168° | 119km/h | 11513m | -4.0m/s | -53.7°C | 35.4% | 0hPa | 2.5V | 00:00:00 | 01:27:39 | 00:00:00 | |
| OE5DRO-10 | 2026-09-04 03:14:05 | 46.29470 | 15.88907 | 168° | 119km/h | 11520m | -3.8m/s | -53.8°C | 35.1% | 0hPa | 2.5V | 00:00:00 | 00:00:00 | 00:00:00 | |
| OE8JPQ-2 | 2026-09-04 03:13:59 | 46.29645 | 15.88858 | 170° | 119km/h | 11540m | -3.5m/s | -53.9°C | 33.1% | 0hPa | 2.5V | 00:00:00 | 00:00:00 | 00:00:00 | |
| PG1ADW-2 | 2026-09-04 03:13:57 | 46.29704 | 15.88840 | 168° | 117km/h | 11546m | -3.1m/s | -53.9°C | 32.4% | 0hPa | 2.5V | 00:00:00 | 00:00:00 | 00:00:00 | |
| PETON7-10 | 2026-09-04 03:13:48 | 46.29968 | 15.88764 | 170° | 119km/h | 11574m | -3.7m/s | -54.1°C | 32.7% | 0hPa | 2.5V | 00:00:00 | 00:00:00 | 00:00:00 | |
| OE5DRO-10 | 2026-09-04 03:13:46 | 46.30027 | 15.88748 | 170° | 120km/h | 11581m | -3.7m/s | -54.2°C | 33.0% | 0hPa | 2.5V | 00:00:00 | 00:00:00 | 00:00:00 | |
| OE8JPQ-2 | 2026-09-04 03:13:39 | 46.30235 | 15.88690 | 171° | 120km/h | 11606m | -4.3m/s | -54.4°C | 34.2% | 0hPa | 2.5V | 00:00:00 | 01:27:11 | 00:00:00 | |
| OE3JTB-15 | 2026-09-04 03:13:38 | 46.30265 | 15.88683 | 171° | 120km/h | 11609m | -1.7m/s | -54.5°C | 34.3% | 0hPa | 2.5V | 00:00:00 | 00:00:00 | 00:00:00 | |
| PETON7-10 | 2026-09-04 03:13:33 | 46.30414 | 15.88644 | 171° | 120km/h | 11629m | -3.6m/s | -54.7°C | 34.4% | 0hPa | 2.5V | 00:00:00 | 00:00:00 | 00:00:00 | |
| OE5DRO-10 | 2026-09-04 03:13:27 | 46.30593 | 15.88598 | 171° | 120km/h | 11651m | -3.2m/s | -54.8°C | 35.5% | 0hPa | 2.5V | 00:00:00 | 00:00:00 | 00:00:00 | |
| OE8JPQ-2 | 2026-09-04 03:13:19 | 46.30834 | 15.88539 | 172° | 120km/h | 11676m | -4.4m/s | -55.1°C | 36.4% | 0hPa | 2.5V | 00:00:00 | 00:00:00 | 00:00:00 | |
| PETON7-10 | 2026-09-04 03:13:18 | 46.30864 | 15.88532 | 171° | 120km/h | 11680m | -2.4m/s | -55.1°C | 36.8% | 0hPa | 2.7V | 00:00:00 | 01:26:50 | 00:00:00 | |
| OE3JTB-15 | 2026-09-04 03:13:09 | 46.31134 | 15.88462 | 170° | 119km/h | 11706m | -3.9m/s | -55.4°C | 39.0% | 0hPa | 2.7V | 00:00:00 | 00:00:00 | 00:00:00 | |
| OE8JPQ-2 | 2026-09-04 03:12:59 | 46.31436 | 15.88394 | 171° | 119km/h | 11747m | -4.9m/s | -55.7°C | 39.0% | 0hPa | 2.7V | 00:00:00 | 00:00:00 | 00:00:00 | |
| OE5DRO-10 | 2026-09-04 03:12:49 | 46.31734 | 15.88323 | 173° | 117km/h | 11794m | -5.8m/s | -56.2°C | 39.7% | 0hPa | 2.7V | 00:00:00 | 00:00:00 | 00:00:00 | |
| PETON7-10 | 2026-09-04 03:12:48 | 46.31763 | 15.88317 | 173° | 117km/h | 11800m | -4.7m/s | -56.2°C | 40.0% | 0hPa | 2.7V | 00:00:00 | 00:00:00 | 00:00:00 | |
| OE3JTB-15 | 2026-09-04 03:12:40 | 46.32001 | 15.88273 | 172° | 117km/h | 11832m | -4.1m/s | -56.5°C | 42.0% | 0hPa | 2.7V | 00:00:00 | 01:26:12 | 00:00:00 | |
| OE8JPQ-2 | 2026-09-04 03:12:37 | 46.32090 | 15.88254 | 172° | 117km/h | 11842m | -2.0m/s | -56.6°C | 43.0% | 0hPa | 2.7V | 00:00:00 | 01:26:09 | 00:00:00 | |
| OE5DXL-15 | 2026-09-04 03:12:34 | 46.32177 | 15.88236 | 173° | 117km/h | 11853m | -3.0m/s | -56.7°C | 43.8% | 0hPa | 2.7V | 00:00:00 | 00:00:00 | 00:00:00 | |
| PETON7-10 | 2026-09-04 03:12:33 | 46.32205 | 15.88230 | 173° | 117km/h | 11856m | -2.7m/s | -56.8°C | 44.3% | 0hPa | 2.5V | 00:00:00 | 01:26:05 | 00:00:00 | |
| OE5DRO-10 | 2026-09-04 03:12:30 | 46.32293 | 15.88215 | 173° | 117km/h | 11865m | -2.1m/s | -56.8°C | 45.1% | 0hPa | 2.5V | 00:00:00 | 00:00:00 | 00:00:00 | |
| PG1ADW-2 | 2026-09-04 03:12:28 | 46.32352 | 15.88203 | 172° | 115km/h | 11871m | -3.5m/s | -56.9°C | 45.3% | 0hPa | 2.5V | 00:00:00 | 00:00:00 | 00:00:00 | |
| PETON7-10 | 2026-09-04 03:12:18 | 46.32645 | 15.88140 | 172° | 115km/h | 11902m | -3.2m/s | -57.2°C | 49.3% | 0hPa | 2.5V | 00:00:00 | 00:00:00 | 08:30:00 | |
| OE8JPQ-2 | 2026-09-04 03:12:17 | 46.32674 | 15.88135 | 174° | 115km/h | 11905m | -3.5m/s | -57.2°C | 49.5% | 0hPa | 2.7V | 00:00:00 | 00:00:00 | 00:00:00 | |
| OE3JTB-15 | 2026-09-04 03:12:11 | 46.32849 | 15.88103 | 174° | 115km/h | 11924m | -2.2m/s | -57.4°C | 51.2% | 0hPa | 2.7V | 00:00:00 | 00:00:00 | 08:30:00 | |
| OE5DXL-15 | 2026-09-04 03:12:04 | 46.33052 | 15.88066 | 173° | 115km/h | 11946m | -4.1m/s | -57.6°C | 51.9% | 0hPa | 2.5V | 00:00:00 | 00:00:00 | 00:00:00 | |
| PETON7-10 | 2026-09-04 03:12:03 | 46.33080 | 15.88060 | 174° | 115km/h | 11950m | -3.4m/s | -57.6°C | 52.2% | 0hPa | 2.5V | 00:00:00 | 00:00:00 | 00:00:00 | |
| OE8JPQ-2 | 2026-09-04 03:11:57 | 46.33254 | 15.88029 | 174° | 115km/h | 11969m | -3.8m/s | -57.8°C | 53.0% | 0hPa | 2.5V | 00:00:00 | 00:00:00 | 00:00:00 | |
| PG1ADW-2 | 2026-09-04 03:11:56 | 46.33283 | 15.88023 | 173° | 115km/h | 11973m | -2.9m/s | -57.9°C | 53.3% | 0hPa | 2.5V | 00:00:00 | 00:00:00 | 00:00:00 | |
| OE5DRO-10 | 2026-09-04 03:11:52 | 46.33398 | 15.88001 | 173° | 115km/h | 11986m | -3.4m/s | -58.0°C | 53.6% | 0hPa | 2.5V | 00:00:00 | 00:00:00 | 00:00:00 | |
| PETON7-10 | 2026-09-04 03:11:48 | 46.33514 | 15.87977 | 171° | 115km/h | 12001m | -3.9m/s | -58.1°C | 53.7% | 0hPa | 2.5V | 00:00:00 | 01:25:20 | 00:00:00 | |
| OE3JTB-15 | 2026-09-04 03:11:42 | 46.33686 | 15.87942 | 173° | 115km/h | 12022m | -3.3m/s | -58.3°C | 53.3% | 0hPa | 2.5V | 00:00:00 | 00:00:00 | 00:00:00 | |
| OE8JPQ-2 | 2026-09-04 03:11:37 | 46.33832 | 15.87913 | 173° | 115km/h | 12038m | -3.0m/s | -58.4°C | 53.2% | 0hPa | 2.5V | 00:00:00 | 01:25:09 | 00:00:00 | |
| PG1ADW-2 | 2026-09-04 03:11:36 | 46.33861 | 15.87908 | 173° | 113km/h | 12042m | -3.6m/s | -58.5°C | 53.1% | 0hPa | 2.5V | 00:00:00 | 01:25:08 | 00:00:00 | |
| OE5DRO-10 | 2026-09-04 03:11:33 | 46.33947 | 15.87891 | 173° | 113km/h | 12050m | -2.6m/s | -58.6°C | 53.1% | 0hPa | 2.5V | 00:00:00 | 00:00:00 | 08:30:00 | |
| PETON7-10 | 2026-09-04 03:11:18 | 46.34376 | 15.87814 | 173° | 115km/h | 12098m | -3.2m/s | -59.0°C | 54.5% | 0hPa | 2.6V | 00:00:00 | 00:00:00 | 00:00:00 | |
| OE8JPQ-2 | 2026-09-04 03:11:17 | 46.34405 | 15.87809 | 173° | 115km/h | 12101m | -4.1m/s | -59.1°C | 53.6% | 0hPa | 2.6V | 00:00:00 | 00:00:00 | 08:30:00 | |
| PG1ADW-2 | 2026-09-04 03:11:16 | 46.34433 | 15.87803 | 174° | 115km/h | 12105m | -5.8m/s | -59.1°C | 53.0% | 0hPa | 2.7V | 00:00:00 | 00:00:00 | 08:30:00 | |
| OE5DRO-10 | 2026-09-04 03:11:14 | 46.34490 | 15.87794 | 174° | 115km/h | 12116m | -4.3m/s | -59.2°C | 53.5% | 0hPa | 2.5V | 00:00:00 | 00:00:00 | 00:00:00 | |
| OE3JTB-15 | 2026-09-04 03:11:13 | 46.34519 | 15.87789 | 174° | 115km/h | 12120m | -4.5m/s | -59.2°C | 53.5% | 0hPa | 2.5V | 00:00:00 | 01:24:45 | 00:00:00 | |
| OE5DXL-15 | 2026-09-04 03:11:03 | 46.34810 | 15.87740 | 174° | 113km/h | 12155m | -3.2m/s | -59.5°C | 55.6% | 0hPa | 2.5V | 00:00:00 | 00:00:00 | 00:00:00 | |
| OE8JPQ-2 | 2026-09-04 03:10:57 | 46.34981 | 15.87710 | 174° | 113km/h | 12174m | -3.2m/s | -59.6°C | 56.5% | 0hPa | 2.7V | 00:00:00 | 00:00:00 | 00:00:00 | |
| OE5DRO-10 | 2026-09-04 03:10:55 | 46.35037 | 15.87702 | 175° | 113km/h | 12181m | -4.1m/s | -59.7°C | 56.5% | 0hPa | 2.7V | 00:00:00 | 00:00:00 | 00:00:00 | |
| PG1ADW-2 | 2026-09-04 03:10:51 | 46.35151 | 15.87686 | 175° | 115km/h | 12194m | -3.1m/s | -59.8°C | 56.8% | 0hPa | 2.7V | 00:00:00 | 00:00:00 | 00:00:00 | |
| PETON7-10 | 2026-09-04 03:10:48 | 46.35239 | 15.87672 | 173° | 113km/h | 12204m | -3.0m/s | -59.9°C | 56.3% | 0hPa | 2.7V | 00:00:00 | 00:00:00 | 00:00:00 | |
| OE3JTB-15 | 2026-09-04 03:10:44 | 46.35355 | 15.87653 | 174° | 113km/h | 12218m | -4.2m/s | -60.1°C | 56.6% | 0hPa | 2.6V | 00:00:00 | 00:00:00 | 00:00:00 | |
| OE8JPQ-2 | 2026-09-04 03:10:37 | 46.35555 | 15.87625 | 175° | 115km/h | 12242m | -3.3m/s | -60.3°C | 59.5% | 0hPa | 2.7V | 00:00:00 | 01:24:09 | 00:00:00 | |
| OE5DRO-10 | 2026-09-04 03:10:36 | 46.35583 | 15.87621 | 174° | 115km/h | 12245m | -3.7m/s | -60.3°C | 59.3% | 0hPa | 2.7V | 00:00:00 | 00:00:00 | 00:00:00 | |
| PETON7-10 | 2026-09-04 03:10:33 | 46.35670 | 15.87606 | 173° | 115km/h | 12255m | -3.1m/s | -60.4°C | 59.7% | 0hPa | 2.7V | 00:00:00 | 00:00:00 | 00:00:00 | |
| PG1ADW-2 | 2026-09-04 03:10:29 | 46.35786 | 15.87586 | 173° | 113km/h | 12267m | -2.9m/s | -60.5°C | 59.5% | 0hPa | 2.7V | 00:00:00 | 00:00:00 | 00:00:00 | |
| PETON7-10 | 2026-09-04 03:10:18 | 46.36104 | 15.87542 | 174° | 113km/h | 12306m | -2.9m/s | -60.9°C | 59.9% | 0hPa | 2.7V | 00:00:00 | 01:23:50 | 00:00:00 | |
| OE8JPQ-2 | 2026-09-04 03:10:17 | 46.36133 | 15.87537 | 174° | 113km/h | 12309m | -3.6m/s | -60.9°C | 59.7% | 0hPa | 2.7V | 00:00:00 | 00:00:00 | 00:00:00 | |
| OE3JTB-15 | 2026-09-04 03:10:15 | 46.36191 | 15.87527 | 174° | 113km/h | 12316m | -3.3m/s | -61.0°C | 59.7% | 0hPa | 2.7V | 00:00:00 | 00:00:00 | 00:00:00 | |
| PG1ADW-2 | 2026-09-04 03:10:04 | 46.36508 | 15.87477 | 175° | 113km/h | 12352m | -3.5m/s | -61.3°C | 60.6% | 0hPa | 2.7V | 00:00:00 | 01:23:36 | 00:00:00 | |
| OE5DXL-15 | 2026-09-04 03:10:03 | 46.36536 | 15.87473 | 175° | 113km/h | 12355m | -3.9m/s | -61.3°C | 60.8% | 0hPa | 2.6V | 00:00:00 | 00:00:00 | 00:00:00 | |
| OE5DRO-10 | 2026-09-04 03:09:58 | 46.36679 | 15.87452 | 174° | 113km/h | 12371m | -3.3m/s | -61.5°C | 62.0% | 0hPa | 2.6V | 00:00:00 | 00:00:00 | 00:00:00 | |
| OE8JPQ-2 | 2026-09-04 03:09:57 | 46.36707 | 15.87447 | 174° | 113km/h | 12373m | -2.1m/s | -61.5°C | 62.2% | 0hPa | 2.6V | 00:00:00 | 00:00:00 | 00:00:00 | |
| PETON7-10 | 2026-09-04 03:09:48 | 46.36965 | 15.87405 | 174° | 113km/h | 12401m | -2.7m/s | -61.8°C | 61.1% | 0hPa | 2.6V | 00:00:00 | 00:00:00 | 00:00:00 | |
| OE3JTB-15 | 2026-09-04 03:09:46 | 46.37022 | 15.87395 | 173° | 113km/h | 12407m | -3.4m/s | -61.8°C | 61.4% | 0hPa | 2.6V | 00:00:00 | 01:23:18 | 00:00:00 | |
| PG1ADW-2 | 2026-09-04 03:09:43 | 46.37108 | 15.87377 | 172° | 113km/h | 12417m | -3.4m/s | -61.9°C | 62.2% | 0hPa | 2.6V | 00:00:00 | 00:00:00 | 00:00:00 | |
| OE5DRO-10 | 2026-09-04 03:09:39 | 46.37223 | 15.87355 | 174° | 113km/h | 12429m | -3.5m/s | -62.0°C | 62.1% | 0hPa | 2.6V | 00:00:00 | 00:00:00 | 00:00:00 | |
| OE8JPQ-2 | 2026-09-04 03:09:37 | 46.37281 | 15.87346 | 174° | 113km/h | 12436m | -3.3m/s | -62.0°C | 62.0% | 0hPa | 2.7V | 00:00:00 | 01:23:09 | 00:00:00 | |
| PETON7-10 | 2026-09-04 03:09:33 | 46.37394 | 15.87326 | 173° | 113km/h | 12448m | -3.2m/s | -62.1°C | 61.6% | 0hPa | 2.7V | 00:00:00 | 01:23:05 | 00:00:00 | |
| PG1ADW-2 | 2026-09-04 03:09:23 | 46.37675 | 15.87268 | 173° | 115km/h | 12479m | -2.7m/s | -62.3°C | 61.5% | 0hPa | 2.7V | 00:00:00 | 00:00:00 | 00:00:00 | |
| OE5DRO-10 | 2026-09-04 03:09:20 | 46.37763 | 15.87251 | 173° | 115km/h | 12488m | -3.1m/s | -62.4°C | 61.7% | 0hPa | 2.7V | 00:00:00 | 00:00:00 | 00:00:00 | |
| PETON7-10 | 2026-09-04 03:09:18 | 46.37821 | 15.87239 | 173° | 115km/h | 12494m | -3.2m/s | -62.4°C | 62.3% | 0hPa | 2.7V | 00:00:00 | 00:00:00 | 00:00:00 | |
| OE8JPQ-2 | 2026-09-04 03:09:17 | 46.37849 | 15.87234 | 173° | 115km/h | 12498m | -3.5m/s | -62.4°C | 62.3% | 0hPa | 2.7V | 00:00:00 | 00:00:00 | 00:00:00 | |
| OE5DRO-10 | 2026-09-04 03:09:01 | 46.38308 | 15.87133 | 172° | 117km/h | 12546m | -2.9m/s | -62.8°C | 62.5% | 0hPa | 2.6V | 00:00:00 | 00:00:00 | 00:00:00 | |
| OE8JPQ-2 | 2026-09-04 03:08:57 | 46.38425 | 15.87107 | 171° | 117km/h | 12558m | -2.5m/s | -62.9°C | 62.0% | 0hPa | 2.6V | 00:00:00 | 00:00:00 | 00:00:00 | |
| OE3JTB-15 | 2026-09-04 03:08:48 | 46.38690 | 15.87043 | 171° | 117km/h | 12586m | -2.9m/s | -63.2°C | 61.4% | 0hPa | 2.6V | 00:00:00 | 00:00:00 | 00:00:00 | |
| PG1ADW-2 | 2026-09-04 03:08:43 | 46.38833 | 15.87008 | 171° | 117km/h | 12600m | -3.6m/s | -63.3°C | 61.1% | 0hPa | 2.6V | 00:00:00 | 01:22:15 | 00:00:00 | |
| OE5DRO-10 | 2026-09-04 03:08:42 | 46.38862 | 15.87001 | 171° | 117km/h | 12604m | -3.0m/s | -63.3°C | 61.6% | 0hPa | 2.6V | 00:00:00 | 00:00:00 | 08:30:00 | |
| OE8JPQ-2 | 2026-09-04 03:08:37 | 46.39006 | 15.86964 | 171° | 119km/h | 12620m | -3.5m/s | -63.5°C | 63.0% | 0hPa | 2.6V | 00:00:00 | 01:22:09 | 00:00:00 | |
| PETON7-10 | 2026-09-04 03:08:33 | 46.39123 | 15.86932 | 169° | 119km/h | 12632m | -3.1m/s | -63.6°C | 63.7% | 0hPa | 2.6V | 00:00:00 | 00:00:00 | 00:00:00 | |
| OE5DXL-15 | 2026-09-04 03:08:32 | 46.39152 | 15.86924 | 169° | 117km/h | 12635m | -3.5m/s | -63.6°C | 63.2% | 0hPa | 2.7V | 00:00:00 | 00:00:00 | 00:00:00 | |
| PG1ADW-2 | 2026-09-04 03:08:23 | 46.39415 | 15.86843 | 167° | 117km/h | 12671m | -4.1m/s | -63.9°C | 63.4% | 0hPa | 2.7V | 00:00:00 | 00:00:00 | 00:00:00 | |
| OE3JTB-15 | 2026-09-04 03:08:19 | 46.39532 | 15.86803 | 166° | 119km/h | 12687m | -3.9m/s | -63.9°C | 63.8% | 0hPa | 2.7V | 00:00:00 | 01:21:51 | 00:00:00 | |
| PETON7-10 | 2026-09-04 03:08:18 | 46.39560 | 15.86791 | 165° | 117km/h | 12691m | -3.5m/s | -64.0°C | 64.0% | 0hPa | 2.7V | 00:00:00 | 00:00:00 | 00:00:00 | |
| OE8JPQ-2 | 2026-09-04 03:08:17 | 46.39590 | 15.86780 | 165° | 119km/h | 12694m | -3.5m/s | -63.9°C | 63.9% | 0hPa | 2.7V | 00:00:00 | 00:00:00 | 08:30:00 | |
| OE5DRO-10 | 2026-09-04 03:08:04 | 46.39955 | 15.86626 | 162° | 122km/h | 12740m | -3.2m/s | -64.0°C | 64.3% | 0hPa | 2.7V | 00:00:00 | 00:00:00 | 00:00:00 | |
| PETON7-10 | 2026-09-04 03:08:03 | 46.39984 | 15.86613 | 163° | 122km/h | 12744m | -4.1m/s | -64.0°C | 64.6% | 0hPa | 2.7V | 00:00:00 | 01:21:35 | 00:00:00 | |
| OE5DXL-15 | 2026-09-04 03:08:02 | 46.40012 | 15.86600 | 163° | 126km/h | 12748m | -3.5m/s | -64.0°C | 65.4% | 0hPa | 2.7V | 00:00:00 | 00:00:00 | 00:00:00 | |
| OE8JPQ-2 | 2026-09-04 03:07:57 | 46.40159 | 15.86533 | 162° | 126km/h | 12761m | -2.7m/s | -64.1°C | 65.5% | 0hPa | 2.6V | 00:00:00 | 00:00:00 | 00:00:00 | |
| OE3JTB-15 | 2026-09-04 03:07:50 | 46.40368 | 15.86439 | 163° | 128km/h | 12781m | -2.8m/s | -64.2°C | 65.7% | 0hPa | 2.6V | 00:00:00 | 00:00:00 | 08:30:00 | |
| PETON7-10 | 2026-09-04 03:07:48 | 46.40427 | 15.86412 | 163° | 128km/h | 12787m | -2.7m/s | -64.3°C | 66.0% | 0hPa | 2.6V | 00:00:00 | 00:00:00 | 08:30:00 | |
| OE5DRO-10 | 2026-09-04 03:07:45 | 46.40518 | 15.86373 | 164° | 128km/h | 12794m | -2.9m/s | -64.2°C | 66.1% | 0hPa | 2.6V | 00:00:00 | 00:00:00 | 00:00:00 | |
| PG1ADW-2 | 2026-09-04 03:07:43 | 46.40579 | 15.86346 | 163° | 130km/h | 12800m | -2.9m/s | -64.1°C | 66.2% | 0hPa | 2.7V | 00:00:00 | 00:00:00 | 00:00:00 | |
| OE8JPQ-2 | 2026-09-04 03:07:37 | 46.40765 | 15.86271 | 165° | 130km/h | 12818m | -3.0m/s | -63.7°C | 64.4% | 0hPa | 2.7V | 00:00:00 | 01:21:09 | 00:00:00 | |
| PETON7-10 | 2026-09-04 03:07:33 | 46.40890 | 15.86222 | 165° | 130km/h | 12831m | -3.5m/s | -63.7°C | 64.0% | 0hPa | 2.7V | 00:00:00 | 00:00:00 | 00:00:00 | |
| OE5DXL-15 | 2026-09-04 03:07:32 | 46.40921 | 15.86209 | 164° | 133km/h | 12834m | -3.8m/s | -63.7°C | 63.9% | 0hPa | 2.7V | 00:00:00 | 00:00:00 | 00:00:00 | |
| OE5DRO-10 | 2026-09-04 03:07:26 | 46.41109 | 15.86130 | 164° | 135km/h | 12853m | -3.0m/s | -63.9°C | 63.6% | 0hPa | 2.7V | 00:00:00 | 00:00:00 | 00:00:00 | |
| PG1ADW-2 | 2026-09-04 03:07:23 | 46.41205 | 15.86090 | 166° | 137km/h | 12862m | -4.0m/s | -64.0°C | 63.8% | 0hPa | 2.7V | 00:00:00 | 01:20:55 | 00:00:00 | |
| OE3JTB-15 | 2026-09-04 03:07:21 | 46.41269 | 15.86066 | 167° | 139km/h | 12870m | -3.5m/s | -64.0°C | 63.7% | 0hPa | 2.7V | 00:00:00 | 00:00:00 | 00:00:00 | |
| PETON7-10 | 2026-09-04 03:07:18 | 46.41366 | 15.86033 | 168° | 139km/h | 12880m | -4.0m/s | -64.0°C | 63.2% | 0hPa | 2.7V | 00:00:00 | 01:20:50 | 00:00:00 | |
| OE8JPQ-2 | 2026-09-04 03:07:17 | 46.41399 | 15.86022 | 167° | 139km/h | 12883m | -3.5m/s | -64.0°C | 63.2% | 0hPa | 2.7V | 00:00:00 | 00:00:00 | 00:00:00 | |
| OE5DRO-10 | 2026-09-04 03:07:07 | 46.41737 | 15.85899 | 166° | 141km/h | 12917m | -4.2m/s | -64.2°C | 62.8% | 0hPa | 2.6V | 00:00:00 | 00:00:00 | 00:00:00 | |
| PG1ADW-2 | 2026-09-04 03:07:03 | 46.41874 | 15.85851 | 167° | 142km/h | 12930m | -2.8m/s | -64.2°C | 62.7% | 0hPa | 2.6V | 00:00:00 | 00:00:00 | 00:00:00 | |
| OE5DXL-15 | 2026-09-04 03:07:02 | 46.41908 | 15.85839 | 168° | 144km/h | 12934m | -3.8m/s | -64.2°C | 62.3% | 0hPa | 2.6V | 00:00:00 | 00:00:00 | 00:00:00 | |
| OE8JPQ-2 | 2026-09-04 03:06:57 | 46.42079 | 15.85778 | 165° | 144km/h | 12952m | -4.2m/s | -64.3°C | 61.5% | 0hPa | 2.6V | 00:00:00 | 00:00:00 | 00:00:00 | |
| OE3JTB-15 | 2026-09-04 03:06:52 | 46.42254 | 15.85712 | 167° | 146km/h | 12969m | -3.6m/s | -64.4°C | 61.8% | 0hPa | 2.6V | 00:00:00 | 01:20:24 | 00:00:00 | |
| PETON7-10 | 2026-09-04 03:06:48 | 46.42396 | 15.85662 | 166° | 146km/h | 12982m | -3.6m/s | -64.5°C | 61.7% | 0hPa | 2.6V | 00:00:00 | 00:00:00 | 00:00:00 | |
| PG1ADW-2 | 2026-09-04 03:06:43 | 46.42572 | 15.85598 | 166° | 148km/h | 12998m | -3.9m/s | -64.6°C | 61.7% | 0hPa | 2.6V | 00:00:00 | 00:00:00 | 00:00:00 | |
| OE8JPQ-2 | 2026-09-04 03:06:37 | 46.42785 | 15.85518 | 165° | 150km/h | 13017m | -2.9m/s | -64.7°C | 61.6% | 0hPa | 2.6V | 00:00:00 | 01:20:09 | 00:00:00 | |
| PETON7-10 | 2026-09-04 03:06:33 | 46.42929 | 15.85460 | 165° | 150km/h | 13031m | -3.7m/s | -64.8°C | 62.8% | 0hPa | 2.6V | 00:00:00 | 01:20:05 | 00:00:00 | |
| OE5DXL-15 | 2026-09-04 03:06:32 | 46.42966 | 15.85445 | 165° | 150km/h | 13034m | -3.1m/s | -64.8°C | 63.3% | 0hPa | 2.6V | 00:00:00 | 00:00:00 | 00:00:00 | |
| OE5DRO-10 | 2026-09-04 03:06:29 | 46.43076 | 15.85402 | 165° | 150km/h | 13045m | -4.0m/s | -64.9°C | 63.4% | 0hPa | 2.6V | 00:00:00 | 00:00:00 | 00:00:00 | |
| PG1ADW-2 | 2026-09-04 03:06:23 | 46.43295 | 15.85316 | 165° | 150km/h | 13067m | -3.9m/s | -65.1°C | 62.5% | 0hPa | 2.6V | 00:00:00 | 00:00:00 | 00:00:00 | |
| PETON7-10 | 2026-09-04 03:06:18 | 46.43477 | 15.85247 | 166° | 150km/h | 13087m | -4.7m/s | -65.2°C | 62.1% | 0hPa | 2.6V | 00:00:00 | 00:00:00 | 00:00:00 | |
| OE8JPQ-2 | 2026-09-04 03:06:17 | 46.43514 | 15.85234 | 166° | 148km/h | 13091m | -2.9m/s | -65.2°C | 62.3% | 0hPa | 2.6V | 00:00:00 | 00:00:00 | 00:00:00 | |
| OE5DRO-10 | 2026-09-04 03:06:10 | 46.43770 | 15.85141 | 166° | 148km/h | 13115m | -3.5m/s | -65.2°C | 61.8% | 0hPa | 2.6V | 00:00:00 | 00:00:00 | 00:00:00 | |
| PETON7-10 | 2026-09-04 03:06:03 | 46.44028 | 15.85053 | 168° | 148km/h | 13139m | -3.7m/s | -65.2°C | 61.0% | 0hPa | 2.6V | 00:00:00 | 00:00:00 | 00:00:00 | |
| OE5DXL-15 | 2026-09-04 03:06:02 | 46.44065 | 15.85042 | 168° | 148km/h | 13143m | -4.2m/s | -65.3°C | 60.6% | 0hPa | 2.6V | 00:00:00 | 00:00:00 | 00:00:00 | |
| OE8JPQ-2 | 2026-09-04 03:05:57 | 46.44246 | 15.84984 | 168° | 148km/h | 13164m | -3.1m/s | -65.4°C | 60.4% | 0hPa | 2.6V | 00:00:00 | 00:00:00 | 00:00:00 | |
| OE3JTB-15 | 2026-09-04 03:05:54 | 46.44357 | 15.84951 | 170° | 146km/h | 13175m | -3.9m/s | -65.5°C | 60.0% | 0hPa | 2.6V | 00:00:00 | 00:00:00 | 00:00:00 | |
| OE5DRO-10 | 2026-09-04 03:05:51 | 46.44468 | 15.84920 | 169° | 146km/h | 13187m | -3.9m/s | -65.5°C | 60.1% | 0hPa | 2.6V | 00:00:00 | 00:00:00 | 08:30:00 | |
| PETON7-10 | 2026-09-04 03:05:48 | 46.44578 | 15.84887 | 169° | 146km/h | 13198m | -4.0m/s | -65.6°C | 59.2% | 0hPa | 2.7V | 00:00:00 | 01:19:20 | 00:00:00 | |
| PG1ADW-2 | 2026-09-04 03:05:43 | 46.44764 | 15.84833 | 170° | 146km/h | 13217m | -4.3m/s | -65.7°C | 58.3% | 0hPa | 2.7V | 00:00:00 | 00:00:00 | 00:00:00 | |
| OE8JPQ-2 | 2026-09-04 03:05:37 | 46.44981 | 15.84771 | 168° | 142km/h | 13240m | -4.1m/s | -65.9°C | 57.1% | 0hPa | 2.7V | 00:00:00 | 01:19:09 | 00:00:00 | |
| PETON7-10 | 2026-09-04 03:05:33 | 46.45124 | 15.84727 | 170° | 142km/h | 13255m | -4.0m/s | -66.0°C | 56.9% | 0hPa | 2.7V | 00:00:00 | 00:00:00 | 08:30:00 | |
| OE5DXL-15 | 2026-09-04 03:05:32 | 46.45160 | 15.84716 | 170° | 135km/h | 13260m | -4.1m/s | -66.1°C | 56.7% | 0hPa | 2.6V | 00:00:00 | 00:00:00 | 00:00:00 | |
| OE3JTB-15 | 2026-09-04 03:05:25 | 46.45417 | 15.84656 | 172° | 130km/h | 13290m | -4.3m/s | -66.2°C | 56.3% | 0hPa | 2.6V | 00:00:00 | 01:18:57 | 00:00:00 | |
| PG1ADW-2 | 2026-09-04 03:05:23 | 46.45488 | 15.84641 | 173° | 131km/h | 13300m | -3.8m/s | -66.3°C | 57.6% | 0hPa | 2.6V | 00:00:00 | 00:00:00 | 00:00:00 | |
| PETON7-10 | 2026-09-04 03:05:18 | 46.45658 | 15.84606 | 171° | 130km/h | 13321m | -3.6m/s | -66.5°C | 58.8% | 0hPa | 2.6V | 00:00:00 | 00:00:00 | 00:00:00 | |
| OE8JPQ-2 | 2026-09-04 03:05:17 | 46.45691 | 15.84598 | 172° | 128km/h | 13324m | -3.2m/s | -66.5°C | 58.8% | 0hPa | 2.6V | 00:00:00 | 00:00:00 | 08:30:00 | |
| OE5DRO-10 | 2026-09-04 03:05:13 | 46.45823 | 15.84570 | 172° | 124km/h | 13338m | -3.7m/s | -66.4°C | 55.7% | 0hPa | 2.7V | 00:00:00 | 00:00:00 | 00:00:00 | |
| PG1ADW-2 | 2026-09-04 03:05:03 | 46.46143 | 15.84505 | 173° | 117km/h | 13371m | -3.6m/s | -64.1°C | 42.0% | 0hPa | 2.7V | 00:00:00 | 00:00:00 | 08:30:00 | |
| OE5DXL-15 | 2026-09-04 03:05:02 | 46.46174 | 15.84500 | 174° | 115km/h | 13374m | -3.7m/s | -64.1°C | 41.7% | 0hPa | 2.7V | 00:00:00 | 01:18:34 | 08:30:00 | |
| OE8JPQ-2 | 2026-09-04 03:04:57 | 46.46327 | 15.84475 | 174° | 115km/h | 13392m | -4.6m/s | -63.7°C | 38.8% | 0hPa | 2.7V | 00:00:00 | 00:00:00 | 00:00:00 | |
| OE3JTB-15 | 2026-09-04 03:04:56 | 46.46356 | 15.84471 | 175° | 113km/h | 13397m | -5.0m/s | -63.7°C | 38.8% | 0hPa | 2.7V | 00:00:00 | 00:00:00 | 00:00:00 | |
| OE5DRO-10 | 2026-09-04 03:04:54 | 46.46414 | 15.84462 | 175° | 113km/h | 13405m | -3.1m/s | -63.7°C | 39.4% | 0hPa | 2.6V | 00:00:00 | 00:00:00 | 00:00:00 | |
| PETON7-10 | 2026-09-04 03:04:48 | 46.46589 | 15.84430 | 172° | 111km/h | 13427m | -3.2m/s | -63.7°C | 38.5% | 0hPa | 2.7V | 00:00:00 | 00:00:00 | 00:00:00 | |
| PG1ADW-2 | 2026-09-04 03:04:43 | 46.46732 | 15.84400 | 171° | 110km/h | 13445m | -4.1m/s | -63.8°C | 36.5% | 0hPa | 2.7V | 00:00:00 | 01:18:15 | 00:00:00 | |
| OE8JPQ-2 | 2026-09-04 03:04:37 | 46.46899 | 15.84361 | 172° | 106km/h | 13469m | -3.4m/s | -64.0°C | 36.4% | 0hPa | 2.7V | 00:00:00 | 01:18:09 | 00:00:00 | |
| OE5DRO-10 | 2026-09-04 03:04:35 | 46.46953 | 15.84349 | 172° | 106km/h | 13476m | -3.5m/s | -63.8°C | 35.6% | 0hPa | 2.7V | 00:00:00 | 00:00:00 | 00:00:00 | |
| PETON7-10 | 2026-09-04 03:04:33 | 46.47008 | 15.84337 | 171° | 106km/h | 13483m | -3.7m/s | -63.8°C | 35.0% | 0hPa | 2.7V | 00:00:00 | 00:00:00 | 00:00:00 | |
| OE5DXL-15 | 2026-09-04 03:04:32 | 46.47036 | 15.84330 | 170° | 104km/h | 13486m | -4.2m/s | -63.8°C | 34.6% | 0hPa | 2.7V | 00:00:00 | 00:00:00 | 00:00:00 | |
| OE3JTB-15 | 2026-09-04 03:04:27 | 46.47170 | 15.84293 | 171° | 102km/h | 13505m | -4.2m/s | -63.8°C | 33.2% | 0hPa | 2.7V | 00:00:00 | 00:00:00 | 00:00:00 | |
| PG1ADW-2 | 2026-09-04 03:04:23 | 46.47275 | 15.84264 | 168° | 102km/h | 13522m | -3.8m/s | -63.8°C | 32.5% | 0hPa | 2.7V | 00:00:00 | 00:00:00 | 00:00:00 | |
| PETON7-10 | 2026-09-04 03:04:18 | 46.47403 | 15.84227 | 168° | 102km/h | 13541m | -3.4m/s | -63.9°C | 31.5% | 0hPa | 2.7V | 00:00:00 | 01:17:50 | 00:00:00 | |
| OE8JPQ-2 | 2026-09-04 03:04:17 | 46.47428 | 15.84219 | 168° | 102km/h | 13544m | -3.6m/s | -64.0°C | 31.5% | 0hPa | 2.7V | 00:00:00 | 00:00:00 | 00:00:00 | |
| OE5DRO-10 | 2026-09-04 03:04:16 | 46.47454 | 15.84211 | 169° | 102km/h | 13548m | -3.6m/s | -64.0°C | 31.4% | 0hPa | 2.6V | 00:00:00 | 00:00:00 | 00:00:00 | |
| OE5DXL-15 | 2026-09-04 03:04:02 | 46.47806 | 15.84089 | 167° | 93km/h | 13604m | -3.5m/s | -64.1°C | 28.8% | 0hPa | 2.6V | 00:00:00 | 00:00:00 | 00:00:00 | |
| OE3JTB-15 | 2026-09-04 03:03:58 | 46.47904 | 15.84051 | 164° | 93km/h | 13618m | -3.9m/s | -64.2°C | 27.5% | 0hPa | 2.6V | 00:00:00 | 01:17:30 | 00:00:00 | |
| OE8JPQ-2 | 2026-09-04 03:03:57 | 46.47929 | 15.84040 | 162° | 93km/h | 13621m | -3.2m/s | -64.2°C | 27.1% | 0hPa | 2.6V | 00:00:00 | 00:00:00 | 00:00:00 | |
| PETON7-10 | 2026-09-04 03:03:48 | 46.48140 | 15.83940 | 164° | 89km/h | 13659m | -3.5m/s | -64.2°C | 25.6% | 0hPa | 2.6V | 00:00:00 | 00:00:00 | 00:00:00 | |
| PG1ADW-2 | 2026-09-04 03:03:43 | 46.48251 | 15.83894 | 165° | 88km/h | 13676m | -4.1m/s | -64.3°C | 24.4% | 0hPa | 2.6V | 00:00:00 | 00:00:00 | 00:00:00 | |
| OE5DRO-10 | 2026-09-04 03:03:38 | 46.48357 | 15.83845 | 162° | 86km/h | 13693m | -3.9m/s | -64.1°C | 22.6% | 0hPa | 2.6V | 00:00:00 | 00:00:00 | 00:00:00 | |
| OE8JPQ-2 | 2026-09-04 03:03:37 | 46.48379 | 15.83835 | 162° | 86km/h | 13697m | -4.3m/s | -64.1°C | 22.3% | 0hPa | 2.6V | 00:00:00 | 01:17:09 | 00:00:00 | |
| PETON7-10 | 2026-09-04 03:03:33 | 46.48463 | 15.83793 | 162° | 86km/h | 13712m | -3.5m/s | -63.2°C | 19.8% | 0hPa | 2.6V | 00:00:00 | 01:17:05 | 00:00:00 | |
| OE5DXL-15 | 2026-09-04 03:03:32 | 46.48484 | 15.83783 | 162° | 86km/h | 13716m | -4.4m/s | -63.0°C | 19.2% | 0hPa | 2.6V | 00:00:00 | 00:00:00 | 00:00:00 | |
| OE3JTB-15 | 2026-09-04 03:03:29 | 46.48548 | 15.83750 | 160° | 84km/h | 13727m | -3.6m/s | -62.6°C | 18.0% | 0hPa | 2.6V | 00:00:00 | 00:00:00 | 08:30:00 | |
| PG1ADW-2 | 2026-09-04 03:03:23 | 46.48669 | 15.83684 | 157° | 84km/h | 13749m | -3.8m/s | -62.1°C | 16.2% | 0hPa | 2.6V | 00:00:00 | 01:16:55 | 00:00:00 | |
| PETON7-10 | 2026-09-04 03:03:18 | 46.48765 | 15.83626 | 157° | 84km/h | 13768m | -4.1m/s | -61.9°C | 15.6% | 0hPa | 2.6V | 00:00:00 | 00:00:00 | 08:30:00 | |
| OE8JPQ-2 | 2026-09-04 03:03:17 | 46.48784 | 15.83613 | 155° | 86km/h | 13772m | -3.6m/s | -61.9°C | 15.6% | 0hPa | 2.6V | 00:00:00 | 00:00:00 | 00:00:00 | |
| OE5DXL-15 | 2026-09-04 03:03:02 | 46.49070 | 15.83403 | 152° | 93km/h | 13828m | -4.2m/s | -61.9°C | 13.6% | 0hPa | 2.6V | 00:00:00 | 00:00:00 | 00:00:00 | |
| OE3JTB-15 | 2026-09-04 03:03:00 | 46.49109 | 15.83371 | 150° | 93km/h | 13836m | -3.7m/s | -61.8°C | 13.4% | 0hPa | 2.6V | 00:00:00 | 00:00:00 | 00:00:00 | |
| OE8JPQ-2 | 2026-09-04 03:02:57 | 46.49168 | 15.83323 | 152° | 93km/h | 13847m | -2.8m/s | -61.7°C | 13.0% | 0hPa | 2.6V | 00:00:00 | 00:00:00 | 00:00:00 | |
| PETON7-10 | 2026-09-04 03:02:48 | 46.49347 | 15.83171 | 149° | 95km/h | 13879m | -3.7m/s | -61.6°C | 12.2% | 0hPa | 2.6V | 00:00:00 | 01:16:20 | 00:00:00 | |
| PG1ADW-2 | 2026-09-04 03:02:43 | 46.49450 | 15.83083 | 151° | 95km/h | 13897m | -2.6m/s | -61.5°C | 12.1% | 0hPa | 2.6V | 00:00:00 | 00:00:00 | 00:00:00 | |
| OE5DRO-10 | 2026-09-04 03:02:41 | 46.49492 | 15.83049 | 153° | 95km/h | 13903m | -2.6m/s | -61.6°C | 12.0% | 0hPa | 2.6V | 00:00:00 | 00:00:00 | 00:00:00 | |
| OE8JPQ-2 | 2026-09-04 03:02:37 | 46.49578 | 15.82985 | 153° | 95km/h | 13917m | -3.1m/s | -61.6°C | 11.8% | 0hPa | 2.6V | 00:00:00 | 01:16:09 | 00:00:00 | |
| PETON7-10 | 2026-09-04 03:02:33 | 46.49665 | 15.82919 | 154° | 95km/h | 13931m | -4.0m/s | -61.6°C | 11.6% | 0hPa | 2.6V | 00:00:00 | 00:00:00 | 00:00:00 | |
| OE5DXL-15 | 2026-09-04 03:02:32 | 46.49686 | 15.82903 | 153° | 93km/h | 13936m | -4.5m/s | -61.6°C | 11.6% | 0hPa | 2.7V | 00:00:00 | 00:00:00 | 00:00:00 | |
| OE3JTB-15 | 2026-09-04 03:02:31 | 46.49708 | 15.82886 | 152° | 93km/h | 13940m | -3.3m/s | -61.5°C | 11.5% | 0hPa | 2.7V | 00:00:00 | 01:16:03 | 00:00:00 | |
| PG1ADW-2 | 2026-09-04 03:02:23 | 46.49880 | 15.82766 | 157° | 93km/h | 13973m | -3.3m/s | -60.5°C | 10.1% | 0hPa | 2.7V | 00:00:00 | 00:00:00 | 00:00:00 | |
| OE5DRO-10 | 2026-09-04 03:02:22 | 46.49902 | 15.82752 | 156° | 93km/h | 13976m | -4.2m/s | -60.4°C | 10.0% | 0hPa | 2.7V | 00:00:00 | 00:00:00 | 00:00:00 | |
| OE8JPQ-2 | 2026-09-04 03:02:17 | 46.50012 | 15.82684 | 158° | 89km/h | 13993m | -3.6m/s | -60.2°C | 9.7% | 0hPa | 2.7V | 00:00:00 | 00:00:00 | 08:30:00 | |
| OE5DRO-10 | 2026-09-04 03:02:03 | 46.50311 | 15.82504 | 158° | 86km/h | 14047m | -4.4m/s | -59.6°C | 9.1% | 0hPa | 2.6V | 00:00:00 | 00:00:00 | 00:00:00 | |
| OE3JTB-15 | 2026-09-04 03:02:02 | 46.50331 | 15.82492 | 159° | 84km/h | 14050m | -3.8m/s | -59.6°C | 9.1% | 0hPa | 2.6V | 00:00:00 | 00:00:00 | 00:00:00 | |
| OE8JPQ-2 | 2026-09-04 03:01:57 | 46.50434 | 15.82431 | 158° | 82km/h | 14069m | -3.4m/s | -59.7°C | 9.1% | 0hPa | 2.7V | 00:00:00 | 00:00:00 | 00:00:00 | |
| PETON7-10 | 2026-09-04 03:01:47 | 46.50633 | 15.82318 | 159° | 82km/h | 14106m | -4.1m/s | -59.6°C | 8.8% | 0hPa | 2.7V | 00:00:00 | 00:00:00 | 00:00:00 | |
| OE5DRO-10 | 2026-09-04 03:01:44 | 46.50692 | 15.82284 | 158° | 80km/h | 14118m | -3.2m/s | -59.6°C | 8.8% | 0hPa | 2.6V | 00:00:00 | 00:00:00 | 00:00:00 | |
| PG1ADW-2 | 2026-09-04 03:01:43 | 46.50711 | 15.82273 | 159° | 80km/h | 14121m | -3.9m/s | -59.5°C | 8.8% | 0hPa | 2.6V | 00:00:00 | 00:00:00 | 00:00:00 | |
| OE8JPQ-2 | 2026-09-04 03:01:37 | 46.50826 | 15.82208 | 160° | 78km/h | 14142m | -3.8m/s | -59.4°C | 8.5% | 0hPa | 2.6V | 00:00:00 | 01:15:09 | 00:00:00 | |
| OE3JTB-15 | 2026-09-04 03:01:33 | 46.50902 | 15.82165 | 161° | 75km/h | 14159m | -4.3m/s | -59.5°C | 8.6% | 0hPa | 2.6V | 00:00:00 | 00:00:00 | 00:00:00 | |
| OE5DRO-10 | 2026-09-04 03:01:25 | 46.51054 | 15.82083 | 161° | 73km/h | 14188m | -4.7m/s | -59.7°C | 8.9% | 0hPa | 2.6V | 00:00:00 | 00:00:00 | 00:00:00 | |
| PG1ADW-2 | 2026-09-04 03:01:23 | 46.51091 | 15.82064 | 159° | 71km/h | 14196m | -3.1m/s | -59.7°C | 8.9% | 0hPa | 2.6V | 00:00:00 | 00:00:00 | 00:00:00 | |
| OE5DRO-10 | 2026-09-04 03:01:06 | 46.51376 | 15.81893 | 158° | 68km/h | 14256m | -3.4m/s | -59.6°C | 9.0% | 0hPa | 2.6V | 00:00:00 | 00:00:00 | 00:00:00 | |
| OE3JTB-15 | 2026-09-04 03:01:04 | 46.51408 | 15.81874 | 155° | 66km/h | 14264m | -3.4m/s | -59.3°C | 8.9% | 0hPa | 2.7V | 00:00:00 | 01:14:36 | 00:00:00 | |
| PG1ADW-2 | 2026-09-04 03:01:03 | 46.51424 | 15.81863 | 156° | 66km/h | 14267m | -3.1m/s | -59.3°C | 8.8% | 0hPa | 2.7V | 00:00:00 | 00:00:00 | 00:00:00 | |
| PETON7-10 | 2026-09-04 03:01:02 | 46.51440 | 15.81853 | 158° | 66km/h | 14270m | -3.9m/s | -59.3°C | 8.8% | 0hPa | 2.7V | 00:00:00 | 00:00:00 | 08:30:00 | |
| OE8JPQ-2 | 2026-09-04 03:00:57 | 46.51518 | 15.81800 | 153° | 66km/h | 14287m | -3.8m/s | -59.2°C | 8.8% | 0hPa | 2.7V | 00:00:00 | 00:00:00 | 00:00:00 | |
| PETON7-10 | 2026-09-04 03:00:47 | 46.51666 | 15.81695 | 152° | 64km/h | 14320m | -3.2m/s | -59.2°C | 8.8% | 0hPa | 2.7V | 00:00:00 | 00:00:00 | 00:00:00 | |
| PG1ADW-2 | 2026-09-04 03:00:43 | 46.51725 | 15.81651 | 151° | 66km/h | 14331m | -2.9m/s | -59.3°C | 8.7% | 0hPa | 2.7V | 00:00:00 | 01:14:15 | 00:00:00 | |
| OE8JPQ-2 | 2026-09-04 03:00:37 | 46.51813 | 15.81581 | 152° | 62km/h | 14346m | -2.0m/s | -59.4°C | 8.8% | 0hPa | 2.7V | 00:00:00 | 01:14:09 | 00:00:00 | |
| OE3JTB-15 | 2026-09-04 03:00:35 | 46.51840 | 15.81558 | 148° | 64km/h | 14348m | -1.0m/s | -59.4°C | 9.0% | 0hPa | 2.7V | 00:00:00 | 00:00:00 | 00:00:00 | |
| PETON7-10 | 2026-09-04 03:00:32 | 46.51880 | 15.81523 | 150° | 64km/h | 14350m | -0.0m/s | -59.4°C | 9.4% | 0hPa | 2.6V | 00:00:00 | 01:14:04 | 00:00:00 | |
| OE5DRO-10 | 2026-09-04 03:00:28 | 46.51938 | 15.81474 | 151° | 66km/h | 14348m | 1.0m/s | -59.4°C | 9.7% | 0hPa | 2.6V | 00:00:00 | 00:00:00 | 00:00:00 | |
| PG1ADW-2 | 2026-09-04 03:00:23 | 46.52012 | 15.81416 | 152° | 64km/h | 14339m | 2.0m/s | -59.4°C | 9.9% | 0hPa | 2.6V | 00:00:00 | 00:00:00 | 00:00:00 | |
| OE8JPQ-2 | 2026-09-04 03:00:17 | 46.52090 | 15.81351 | 149° | 68km/h | 14322m | 6.6m/s | -59.3°C | 9.6% | 0hPa | 2.6V | 00:00:00 | 00:00:00 | 00:00:00 | |
| OE5DRO-10 | 2026-09-04 03:00:09 | 46.52215 | 15.81270 | 159° | 73km/h | 14272m | 7.5m/s | -59.3°C | 10.0% | 0hPa | 2.7V | 00:00:00 | 00:00:00 | 08:30:00 | |
| OE3JTB-15 | 2026-09-04 03:00:06 | 46.52261 | 15.81243 | 158° | 77km/h | 14255m | 7.2m/s | -59.6°C | 10.4% | 0hPa | 2.7V | 00:00:00 | 00:00:00 | 00:00:00 | |
| PETON7-10 | 2026-09-04 03:00:02 | 46.52325 | 15.81205 | 159° | 77km/h | 14233m | 2.1m/s | -59.8°C | 11.1% | 0hPa | 2.7V | 00:00:00 | 00:00:00 | 00:00:00 | |
| OE8JPQ-2 | 2026-09-04 02:59:57 | 46.52410 | 15.81155 | 160° | 78km/h | 14203m | 7.2m/s | -59.8°C | 11.5% | 0hPa | 2.7V | 00:00:00 | 00:00:00 | 00:00:00 | |
| OE5DRO-10 | 2026-09-04 02:59:50 | 46.52542 | 15.81084 | 160° | 80km/h | 14162m | 8.3m/s | -59.7°C | 12.1% | 0hPa | 2.7V | 00:00:00 | 00:00:00 | 00:00:00 | |
| PETON7-10 | 2026-09-04 02:59:47 | 46.52596 | 15.81057 | 161° | 80km/h | 14145m | 6.6m/s | -59.5°C | 12.2% | 0hPa | 2.7V | 00:00:00 | 01:13:19 | 00:00:00 | |
| PG1ADW-2 | 2026-09-04 02:59:43 | 46.52665 | 15.81012 | 156° | 86km/h | 14120m | 6.3m/s | -59.5°C | 12.6% | 0hPa | 2.7V | 00:00:00 | 00:00:00 | 00:00:00 | |
| OE8JPQ-2 | 2026-09-04 02:59:37 | 46.52782 | 15.80954 | 161° | 89km/h | 14084m | 6.6m/s | -59.6°C | 13.4% | 0hPa | 2.7V | 00:00:00 | 01:13:09 | 00:00:00 | |
| PETON7-10 | 2026-09-04 02:59:32 | 46.52882 | 15.80904 | 158° | 91km/h | 14056m | 4.4m/s | -59.6°C | 14.0% | 0hPa | 2.7V | 00:00:00 | 00:00:00 | 00:00:00 | |
| OE5DRO-10 | 2026-09-04 02:59:31 | 46.52902 | 15.80891 | 157° | 93km/h | 14051m | 5.7m/s | -59.6°C | 14.0% | 0hPa | 2.7V | 00:00:00 | 00:00:00 | 00:00:00 | |
| PG1ADW-2 | 2026-09-04 02:59:23 | 46.53072 | 15.80784 | 158° | 97km/h | 14000m | 6.1m/s | -59.7°C | 15.0% | 0hPa | 2.7V | 00:00:00 | 01:12:55 | 00:00:00 | |
| OE8JPQ-2 | 2026-09-04 02:59:17 | 46.53202 | 15.80703 | 155° | 99km/h | 13967m | 3.5m/s | -60.3°C | 17.7% | 0hPa | 2.7V | 00:00:00 | 00:00:00 | 08:30:00 | |
| OE5DRO-10 | 2026-09-04 02:59:12 | 46.53312 | 15.80624 | 154° | 97km/h | 13940m | 4.2m/s | -60.9°C | 19.8% | 0hPa | 2.7V | 00:00:00 | 00:00:00 | 00:00:00 | |
| OE3JTB-15 | 2026-09-04 02:59:08 | 46.53401 | 15.80559 | 152° | 91km/h | 13918m | 5.1m/s | -61.5°C | 21.8% | 0hPa | 2.7V | 00:00:00 | 00:00:00 | 08:30:00 | |
| PG1ADW-2 | 2026-09-04 02:59:03 | 46.53506 | 15.80463 | 147° | 89km/h | 13887m | 9.4m/s | -61.4°C | 22.5% | 0hPa | 2.7V | 00:00:00 | 00:00:00 | 08:30:00 | |
| PETON7-10 | 2026-09-04 02:59:02 | 46.53527 | 15.80443 | 148° | 89km/h | 13880m | 4.6m/s | -61.4°C | 23.0% | 0hPa | 2.7V | 00:00:00 | 01:12:34 | 00:00:00 | |
| OE8JPQ-2 | 2026-09-04 02:58:57 | 46.53631 | 15.80352 | 148° | 86km/h | 13848m | 4.9m/s | -61.5°C | 24.8% | 0hPa | 2.7V | 00:00:00 | 00:00:00 | 00:00:00 | |
| OE5DRO-10 | 2026-09-04 02:58:53 | 46.53707 | 15.80286 | 151° | 84km/h | 13822m | 6.6m/s | -61.6°C | 26.9% | 0hPa | 2.7V | 00:00:00 | 00:00:00 | 00:00:00 | |
| PETON7-10 | 2026-09-04 02:58:47 | 46.53817 | 15.80193 | 152° | 86km/h | 13793m | 4.9m/s | -61.7°C | 28.6% | 0hPa | 2.7V | 00:00:00 | 00:00:00 | 08:30:00 | |
| PG1ADW-2 | 2026-09-04 02:58:43 | 46.53897 | 15.80136 | 155° | 86km/h | 13770m | 5.0m/s | -61.7°C | 29.2% | 0hPa | 2.7V | 00:00:00 | 00:00:00 | 00:00:00 | |
| OE3JTB-15 | 2026-09-04 02:58:39 | 46.53976 | 15.80085 | 159° | 95km/h | 13747m | 5.0m/s | -61.8°C | 30.7% | 0hPa | 2.7V | 00:00:00 | 00:00:00 | 00:00:00 | |
| OE8JPQ-2 | 2026-09-04 02:58:37 | 46.54014 | 15.80065 | 163° | 91km/h | 13736m | 3.2m/s | -61.8°C | 31.6% | 0hPa | 2.7V | 00:00:00 | 01:12:09 | 00:00:00 | |
| OE5DRO-10 | 2026-09-04 02:58:34 | 46.54075 | 15.80034 | 159° | 95km/h | 13720m | 4.5m/s | -62.0°C | 33.7% | 0hPa | 2.7V | 00:00:00 | 00:00:00 | 00:00:00 | |
| PETON7-10 | 2026-09-04 02:58:32 | 46.54117 | 15.80012 | 163° | 93km/h | 13709m | 4.4m/s | -62.4°C | 36.6% | 0hPa | 2.7V | 00:00:00 | 00:00:00 | 00:00:00 | |
| PG1ADW-2 | 2026-09-04 02:58:23 | 46.54306 | 15.79923 | 161° | 104km/h | 13656m | 7.3m/s | -63.9°C | 44.1% | 0hPa | 2.7V | 00:00:00 | 00:00:00 | 00:00:00 | |
| OE8JPQ-2 | 2026-09-04 02:58:17 | 46.54452 | 15.79847 | 161° | 106km/h | 13613m | 6.2m/s | -64.0°C | 45.2% | 0hPa | 2.7V | 00:00:00 | 00:00:00 | 00:00:00 | |
| OE5DRO-10 | 2026-09-04 02:58:15 | 46.54506 | 15.79820 | 162° | 104km/h | 13601m | 5.3m/s | -64.0°C | 45.3% | 0hPa | 2.7V | 00:00:00 | 00:00:00 | 00:00:00 | |
| OE3JTB-15 | 2026-09-04 02:58:09 | 46.54659 | 15.79759 | 169° | 108km/h | 13556m | 5.6m/s | -63.8°C | 48.4% | 0hPa | 2.7V | 00:00:00 | 01:11:41 | 00:00:00 | |
| PG1ADW-2 | 2026-09-04 02:58:03 | 46.54812 | 15.79708 | 165° | 108km/h | 13524m | 6.8m/s | -63.8°C | 49.7% | 0hPa | 2.7V | 00:00:00 | 01:11:35 | 00:00:00 | |
| PETON7-10 | 2026-09-04 02:58:02 | 46.54837 | 15.79699 | 167° | 106km/h | 13518m | 4.9m/s | -63.8°C | 50.5% | 0hPa | 2.7V | 00:00:00 | 00:00:00 | 00:00:00 | |
| OE5DRO-10 | 2026-09-04 02:57:56 | 46.54995 | 15.79668 | 176° | 113km/h | 13481m | 7.3m/s | -63.7°C | 53.2% | 0hPa | 2.7V | 00:00:00 | 00:00:00 | 00:00:00 | |
| PG1ADW-2 | 2026-09-04 02:57:43 | 46.55353 | 15.79575 | 170° | 128km/h | 13401m | 4.3m/s | -63.6°C | 53.9% | 0hPa | 2.7V | 00:00:00 | 00:00:00 | 00:00:00 | |
| OE3JTB-15 | 2026-09-04 02:57:40 | 46.55441 | 15.79560 | 176° | 139km/h | 13380m | 6.7m/s | -63.8°C | 55.4% | 0hPa | 2.7V | 00:00:00 | 00:00:00 | 00:00:00 | |
| OE8JPQ-2 | 2026-09-04 02:57:37 | 46.55531 | 15.79551 | 176° | 137km/h | 13362m | 6.9m/s | -63.7°C | 56.8% | 0hPa | 2.7V | 00:00:00 | 01:11:09 | 00:00:00 | |
| PETON7-10 | 2026-09-04 02:57:32 | 46.55679 | 15.79532 | 174° | 144km/h | 13323m | 7.7m/s | -64.1°C | 59.4% | 0hPa | 2.7V | 00:00:00 | 01:11:04 | 00:00:00 | |
| PG1ADW-2 | 2026-09-04 02:57:23 | 46.55998 | 15.79501 | 172° | 151km/h | 13244m | 8.0m/s | -65.7°C | 62.8% | 0hPa | 2.7V | 00:00:00 | 00:00:00 | 00:00:00 | |
| OE5DRO-10 | 2026-09-04 02:57:18 | 46.56185 | 15.79447 | 168° | 151km/h | 13209m | 3.8m/s | -65.5°C | 64.1% | 0hPa | 2.7V | 00:00:00 | 00:00:00 | 08:30:00 | |
| PETON7-10 | 2026-09-04 02:57:17 | 46.56222 | 15.79434 | 168° | 151km/h | 13203m | 7.8m/s | -65.4°C | 63.6% | 0hPa | 2.7V | 00:00:00 | 00:00:00 | 00:00:00 | |
| OE3JTB-15 | 2026-09-04 02:57:11 | 46.56451 | 15.79358 | 169° | 150km/h | 13169m | 8.6m/s | -65.2°C | 63.0% | 0hPa | 2.7V | 00:00:00 | 00:00:00 | 00:00:00 | |
| PG1ADW-2 | 2026-09-04 02:57:03 | 46.56749 | 15.79262 | 167° | 150km/h | 13129m | 3.4m/s | -65.0°C | 63.7% | 0hPa | 2.7V | 00:00:00 | 00:00:00 | 00:00:00 | |
| OE5DXL-15 | 2026-09-04 02:57:02 | 46.56785 | 15.79250 | 168° | 150km/h | 13125m | 5.9m/s | -65.0°C | 62.6% | 0hPa | 2.7V | 00:00:00 | 00:00:00 | 00:00:00 | |
| OE5DRO-10 | 2026-09-04 02:56:59 | 46.56891 | 15.79216 | 168° | 151km/h | 13107m | 5.8m/s | -64.9°C | 64.5% | 0hPa | 2.7V | 00:00:00 | 00:00:00 | 00:00:00 | |
| OE8JPQ-2 | 2026-09-04 02:56:57 | 46.56963 | 15.79190 | 166° | 151km/h | 13098m | 7.0m/s | -64.9°C | 63.8% | 0hPa | 2.7V | 00:00:00 | 00:00:00 | 00:00:00 | |
| PETON7-10 | 2026-09-04 02:56:47 | 46.57339 | 15.79027 | 162° | 148km/h | 13044m | 6.4m/s | -64.8°C | 65.1% | 0hPa | 2.7V | 00:00:00 | 01:10:19 | 00:00:00 | |
| PG1ADW-2 | 2026-09-04 02:56:43 | 46.57478 | 15.78967 | 165° | 146km/h | 13022m | 4.3m/s | -64.6°C | 65.6% | 0hPa | 2.7V | 00:00:00 | 01:10:15 | 00:00:00 | |
| OE3JTB-15 | 2026-09-04 02:56:42 | 46.57514 | 15.78952 | 164° | 142km/h | 13018m | 3.5m/s | -64.6°C | 65.3% | 0hPa | 2.7V | 00:00:00 | 01:10:14 | 00:00:00 | |
| OE8JPQ-2 | 2026-09-04 02:56:37 | 46.57695 | 15.78872 | 163° | 142km/h | 12993m | 3.3m/s | -64.4°C | 65.0% | 0hPa | 2.7V | 00:00:00 | 01:10:09 | 00:00:00 | |
| OE5DXL-15 | 2026-09-04 02:56:32 | 46.57873 | 15.78795 | 165° | 137km/h | 12968m | 5.4m/s | -64.4°C | 64.8% | 0hPa | 2.7V | 00:00:00 | 00:00:00 | 00:00:00 | |
| PG1ADW-2 | 2026-09-04 02:56:23 | 46.58185 | 15.78672 | 166° | 135km/h | 12918m | 4.6m/s | -64.0°C | 62.3% | 0hPa | 2.7V | 00:00:00 | 00:00:00 | 00:00:00 | |
| OE5DRO-10 | 2026-09-04 02:56:21 | 46.58252 | 15.78648 | 166° | 135km/h | 12905m | 7.2m/s | -63.9°C | 63.1% | 0hPa | 2.7V | 00:00:00 | 00:00:00 | 00:00:00 | |
| OE8JPQ-2 | 2026-09-04 02:56:17 | 46.58385 | 15.78592 | 164° | 133km/h | 12888m | 5.3m/s | -63.8°C | 61.8% | 0hPa | 2.7V | 00:00:00 | 00:00:00 | 08:30:00 | |
| OE3JTB-15 | 2026-09-04 02:56:13 | 46.58519 | 15.78533 | 164° | 126km/h | 12864m | 8.1m/s | -63.7°C | 62.0% | 0hPa | 2.7V | 00:00:00 | 00:00:00 | 00:00:00 | |
| PG1ADW-2 | 2026-09-04 02:56:03 | 46.58840 | 15.78391 | 162° | 122km/h | 12803m | 4.9m/s | -64.3°C | 63.1% | 0hPa | 2.7V | 00:00:00 | 00:00:00 | 08:30:00 | |
| PETON7-10 | 2026-09-04 02:56:02 | 46.58872 | 15.78375 | 162° | 120km/h | 12798m | 5.1m/s | -64.4°C | 63.5% | 0hPa | 2.7V | 00:00:00 | 01:09:34 | 00:00:00 | |
| OE8JPQ-2 | 2026-09-04 02:55:57 | 46.59023 | 15.78301 | 158° | 120km/h | 12769m | 5.9m/s | -64.3°C | 61.5% | 0hPa | 2.7V | 00:00:00 | 00:00:00 | 00:00:00 | |
| PETON7-10 | 2026-09-04 02:55:47 | 46.59301 | 15.78148 | 163° | 120km/h | 12716m | 3.7m/s | -64.0°C | 63.9% | 0hPa | 2.7V | 00:00:00 | 00:00:00 | 00:00:00 | |
| OE3JTB-15 | 2026-09-04 02:55:44 | 46.59391 | 15.78110 | 165° | 119km/h | 12695m | 6.2m/s | -64.0°C | 61.8% | 0hPa | 2.7V | 00:00:00 | 00:00:00 | 00:00:00 | |
| PG1ADW-2 | 2026-09-04 02:55:43 | 46.59420 | 15.78098 | 165° | 119km/h | 12686m | 10.9m/s | -63.9°C | 61.5% | 0hPa | 2.7V | 00:00:00 | 00:00:00 | 00:00:00 | |
| OE8JPQ-2 | 2026-09-04 02:55:37 | 46.59597 | 15.78025 | 168° | 119km/h | 12645m | 5.3m/s | -63.8°C | 61.7% | 0hPa | 2.7V | 00:00:00 | 01:09:09 | 00:00:00 | |
| PETON7-10 | 2026-09-04 02:55:32 | 46.59742 | 15.77976 | 167° | 119km/h | 12611m | 3.8m/s | -63.5°C | 63.7% | 0hPa | 2.7V | 00:00:00 | 00:00:00 | 00:00:00 | |
| OE5DRO-10 | 2026-09-04 02:55:24 | 46.59975 | 15.77892 | 170° | 119km/h | 12569m | 5.8m/s | -63.1°C | 62.6% | 0hPa | 2.7V | 00:00:00 | 00:00:00 | 00:00:00 | |
| PG1ADW-2 | 2026-09-04 02:55:23 | 46.60003 | 15.77884 | 169° | 119km/h | 12564m | 4.7m/s | -63.1°C | 61.9% | 0hPa | 2.7V | 00:00:00 | 01:08:55 | 00:00:00 | |
| OE8JPQ-2 | 2026-09-04 02:55:17 | 46.60182 | 15.77829 | 169° | 119km/h | 12525m | 4.8m/s | -62.8°C | 62.2% | 0hPa | 2.7V | 00:00:00 | 00:00:00 | 00:00:00 | |
| OE3JTB-15 | 2026-09-04 02:55:15 | 46.60240 | 15.77811 | 169° | 120km/h | 12514m | 3.9m/s | -62.7°C | 61.7% | 0hPa | 2.7V | 00:00:00 | 01:08:47 | 00:00:00 | |
| OE5DRO-10 | 2026-09-04 02:55:05 | 46.60538 | 15.77730 | 170° | 120km/h | 12456m | 5.3m/s | -62.2°C | 61.6% | 0hPa | 2.7V | 00:00:00 | 00:00:00 | 00:00:00 | |
| PG1ADW-2 | 2026-09-04 02:55:03 | 46.60597 | 15.77717 | 173° | 120km/h | 12447m | 6.1m/s | -62.1°C | 60.9% | 0hPa | 2.7V | 00:00:00 | 00:00:00 | 00:00:00 | |
| PETON7-10 | 2026-09-04 02:55:02 | 46.60627 | 15.77711 | 173° | 120km/h | 12440m | 7.3m/s | -62.1°C | 61.1% | 0hPa | 2.7V | 00:00:00 | 00:00:00 | 00:00:00 | |
| OE8JPQ-2 | 2026-09-04 02:54:57 | 46.60775 | 15.77676 | 169° | 120km/h | 12410m | 7.1m/s | -61.8°C | 60.1% | 0hPa | 2.7V | 00:00:00 | 00:00:00 | 00:00:00 | |
| PETON7-10 | 2026-09-04 02:54:47 | 46.61079 | 15.77584 | 168° | 122km/h | 12346m | 5.3m/s | -61.3°C | 61.1% | 0hPa | 2.7V | 00:00:00 | 00:00:00 | 00:00:00 | |
| OE5DRO-10 | 2026-09-04 02:54:46 | 46.61108 | 15.77573 | 167° | 122km/h | 12340m | 7.1m/s | -61.2°C | 61.1% | 0hPa | 2.7V | 00:00:00 | 00:00:00 | 00:00:00 | |
| PG1ADW-2 | 2026-09-04 02:54:43 | 46.61195 | 15.77545 | 170° | 122km/h | 12324m | 3.6m/s | -61.1°C | 60.2% | 0hPa | 2.7V | 00:00:00 | 00:00:00 | 00:00:00 | |
| OE8JPQ-2 | 2026-09-04 02:54:37 | 46.61375 | 15.77495 | 170° | 122km/h | 12282m | 5.2m/s | -60.8°C | 61.9% | 0hPa | 2.7V | 00:00:00 | 01:08:09 | 00:00:00 | |
| PETON7-10 | 2026-09-04 02:54:32 | 46.61532 | 15.77445 | 168° | 120km/h | 12254m | 7.0m/s | -60.5°C | 58.7% | 0hPa | 2.7V | 00:00:00 | 01:08:04 | 00:00:00 | |
| OE5DRO-10 | 2026-09-04 02:54:27 | 46.61681 | 15.77399 | 170° | 122km/h | 12217m | 6.4m/s | -60.2°C | 60.3% | 0hPa | 2.7V | 00:00:00 | 00:00:00 | 08:30:00 | |
| PG1ADW-2 | 2026-09-04 02:54:23 | 46.61802 | 15.77372 | 172° | 122km/h | 12197m | 5.0m/s | -60.0°C | 59.1% | 0hPa | 2.7V | 00:00:00 | 00:00:00 | 00:00:00 | |
| OE8JPQ-2 | 2026-09-04 02:54:17 | 46.61981 | 15.77308 | 168° | 122km/h | 12164m | 3.3m/s | -59.7°C | 58.1% | 0hPa | 2.7V | 00:00:00 | 00:00:00 | 00:00:00 | |
| OE5DRO-10 | 2026-09-04 02:54:08 | 46.62259 | 15.77225 | 169° | 122km/h | 12111m | 8.4m/s | -59.2°C | 53.9% | 0hPa | 2.7V | 00:00:00 | 00:00:00 | 00:00:00 | |
| PG1ADW-2 | 2026-09-04 02:54:03 | 46.62408 | 15.77178 | 168° | 122km/h | 12083m | 5.1m/s | -59.0°C | 52.8% | 0hPa | 2.7V | 00:00:00 | 01:07:35 | 00:00:00 | |
| OE8JPQ-2 | 2026-09-04 02:53:57 | 46.62585 | 15.77124 | 170° | 122km/h | 12051m | 5.1m/s | -58.7°C | 49.4% | 0hPa | 2.7V | 00:00:00 | 00:00:00 | 00:00:00 | |
| OE5DRO-10 | 2026-09-04 02:53:49 | 46.62830 | 15.77045 | 166° | 124km/h | 12003m | 2.3m/s | -58.2°C | 48.0% | 0hPa | 2.7V | 00:00:00 | 00:00:00 | 00:00:00 | |
| OE3JTB-15 | 2026-09-04 02:53:48 | 46.62859 | 15.77034 | 167° | 124km/h | 11998m | 7.2m/s | -58.2°C | 46.6% | 0hPa | 2.7V | 00:00:00 | 01:07:20 | 00:00:00 | |
| PETON7-10 | 2026-09-04 02:53:47 | 46.62889 | 15.77025 | 169° | 124km/h | 11991m | 7.0m/s | -58.1°C | 46.7% | 0hPa | 2.7V | 00:00:00 | 01:07:19 | 00:00:00 | |
| PG1ADW-2 | 2026-09-04 02:53:43 | 46.63013 | 15.76993 | 170° | 124km/h | 11969m | 6.8m/s | -57.9°C | 45.2% | 0hPa | 2.7V | 00:00:00 | 00:00:00 | 00:00:00 | |
| OE8JPQ-2 | 2026-09-04 02:53:37 | 46.63194 | 15.76935 | 165° | 126km/h | 11930m | 5.1m/s | -57.5°C | 44.3% | 0hPa | 2.7V | 00:00:00 | 01:07:09 | 00:00:00 | |
| PETON7-10 | 2026-09-04 02:53:32 | 46.63353 | 15.76877 | 170° | 124km/h | 11900m | 4.8m/s | -57.3°C | 42.5% | 0hPa | 2.7V | 00:00:00 | 00:00:00 | 00:00:00 | |
| OE5DRO-10 | 2026-09-04 02:53:30 | 46.63417 | 15.76859 | 169° | 124km/h | 11885m | 8.8m/s | -57.1°C | 41.9% | 0hPa | 2.7V | 00:00:00 | 00:00:00 | 00:00:00 | |
| PG1ADW-2 | 2026-09-04 02:53:23 | 46.63630 | 15.76796 | 168° | 124km/h | 11842m | 4.9m/s | -56.7°C | 41.3% | 0hPa | 2.7V | 00:00:00 | 00:00:00 | 00:00:00 | |
| OE3JTB-15 | 2026-09-04 02:53:19 | 46.63751 | 15.76749 | 166° | 124km/h | 11819m | 7.9m/s | -56.5°C | 40.6% | 0hPa | 2.7V | 00:00:00 | 00:00:00 | 00:00:00 | |
| OE8JPQ-2 | 2026-09-04 02:53:17 | 46.63813 | 15.76728 | 168° | 126km/h | 11809m | 8.6m/s | -56.4°C | 39.7% | 0hPa | 2.7V | 00:00:00 | 00:00:00 | 08:30:00 | |
| OE5DRO-10 | 2026-09-04 02:53:11 | 46.63995 | 15.76662 | 165° | 126km/h | 11775m | 6.5m/s | -56.1°C | 40.6% | 0hPa | 2.7V | 00:00:00 | 00:00:00 | 00:00:00 | |
| PG1ADW-2 | 2026-09-04 02:53:03 | 46.64243 | 15.76567 | 167° | 124km/h | 11731m | 5.9m/s | -55.7°C | 42.0% | 0hPa | 2.7V | 00:00:00 | 00:00:00 | 08:30:00 | |
| PETON7-10 | 2026-09-04 02:53:02 | 46.64275 | 15.76556 | 167° | 122km/h | 11726m | 6.0m/s | -55.6°C | 42.6% | 0hPa | 2.7V | 00:00:00 | 01:06:34 | 00:00:00 | |
| OE8JPQ-2 | 2026-09-04 02:52:57 | 46.64430 | 15.76501 | 165° | 122km/h | 11696m | 4.9m/s | -55.4°C | 46.0% | 0hPa | 2.7V | 00:00:00 | 00:00:00 | 00:00:00 | |
| OE5DRO-10 | 2026-09-04 02:52:52 | 46.64577 | 15.76442 | 168° | 124km/h | 11672m | 4.5m/s | -55.3°C | 46.2% | 0hPa | 2.7V | 00:00:00 | 00:00:00 | 00:00:00 | |
| OE3JTB-15 | 2026-09-04 02:52:50 | 46.64636 | 15.76422 | 166° | 124km/h | 11656m | 6.7m/s | -55.2°C | 47.2% | 0hPa | 2.7V | 00:00:00 | 00:00:00 | 00:00:00 | |
| PETON7-10 | 2026-09-04 02:52:47 | 46.64725 | 15.76386 | 163° | 124km/h | 11640m | 6.4m/s | -55.0°C | 47.9% | 0hPa | 2.7V | 00:00:00 | 00:00:00 | 00:00:00 | |
| PG1ADW-2 | 2026-09-04 02:52:43 | 46.64844 | 15.76328 | 161° | 124km/h | 11617m | 7.4m/s | -54.8°C | 48.2% | 0hPa | 2.7V | 00:00:00 | 01:06:15 | 00:00:00 | |
| OE8JPQ-2 | 2026-09-04 02:52:37 | 46.65027 | 15.76250 | 167° | 122km/h | 11584m | 5.0m/s | -54.6°C | 47.1% | 0hPa | 2.7V | 00:00:00 | 01:06:09 | 00:00:00 | |
| OE5DRO-10 | 2026-09-04 02:52:33 | 46.65146 | 15.76199 | 162° | 122km/h | 11564m | 6.0m/s | -54.4°C | 47.0% | 0hPa | 2.7V | 00:00:00 | 00:00:00 | 00:00:00 | |
| PETON7-10 | 2026-09-04 02:52:32 | 46.65175 | 15.76184 | 162° | 122km/h | 11558m | 5.0m/s | -54.3°C | 47.4% | 0hPa | 2.7V | 00:00:00 | 00:00:00 | 00:00:00 | |
| PG1ADW-2 | 2026-09-04 02:52:23 | 46.65447 | 15.76064 | 164° | 119km/h | 11511m | 4.5m/s | -54.0°C | 51.4% | 0hPa | 2.7V | 00:00:00 | 00:00:00 | 00:00:00 | |
| OE3JTB-15 | 2026-09-04 02:52:21 | 46.65503 | 15.76039 | 162° | 119km/h | 11500m | 5.8m/s | -53.9°C | 52.0% | 0hPa | 2.7V | 00:00:00 | 01:05:53 | 00:00:00 | |
| OE8JPQ-2 | 2026-09-04 02:52:17 | 46.65619 | 15.75984 | 163° | 119km/h | 11480m | 4.8m/s | -53.7°C | 52.3% | 0hPa | 2.7V | 00:00:00 | 00:00:00 | 00:00:00 | |
| OE5DRO-10 | 2026-09-04 02:52:14 | 46.65709 | 15.75943 | 163° | 119km/h | 11460m | 4.2m/s | -53.6°C | 53.6% | 0hPa | 2.7V | 00:00:00 | 00:00:00 | 00:00:00 | |
| PG1ADW-2 | 2026-09-04 02:52:03 | 46.66022 | 15.75799 | 164° | 119km/h | 11406m | 5.4m/s | -53.1°C | 55.5% | 0hPa | 2.7V | 00:00:00 | 00:00:00 | 00:00:00 | |
| PETON7-10 | 2026-09-04 02:52:02 | 46.66051 | 15.75787 | 163° | 119km/h | 11400m | 5.6m/s | -53.0°C | 55.9% | 0hPa | 2.7V | 00:00:00 | 00:00:00 | 08:30:00 | |
| OE8JPQ-2 | 2026-09-04 02:51:57 | 46.66192 | 15.75718 | 163° | 119km/h | 11375m | 4.7m/s | -52.8°C | 57.2% | 0hPa | 2.7V | 00:00:00 | 00:00:00 | 00:00:00 | |
| OE5DRO-10 | 2026-09-04 02:51:55 | 46.66249 | 15.75690 | 162° | 119km/h | 11363m | 5.8m/s | -52.7°C | 56.5% | 0hPa | 2.7V | 00:00:00 | 00:00:00 | 00:00:00 | |
| OE3JTB-15 | 2026-09-04 02:51:52 | 46.66334 | 15.75649 | 162° | 119km/h | 11345m | 8.4m/s | -52.5°C | 56.0% | 0hPa | 2.7V | 00:00:00 | 00:00:00 | 00:00:00 | |
| PETON7-10 | 2026-09-04 02:51:47 | 46.66478 | 15.75580 | 164° | 119km/h | 11313m | 5.7m/s | -52.2°C | 56.9% | 0hPa | 2.7V | 00:00:00 | 00:00:00 | 00:00:00 | |
| PG1ADW-2 | 2026-09-04 02:51:43 | 46.66590 | 15.75530 | 164° | 119km/h | 11293m | 5.9m/s | -52.0°C | 58.3% | 0hPa | 2.7V | 00:00:00 | 00:00:00 | 00:00:00 | |
| PETON7-10 | 2026-09-04 02:51:32 | 46.66908 | 15.75382 | 165° | 119km/h | 11236m | 6.4m/s | -51.6°C | 59.8% | 0hPa | 2.7V | 00:00:00 | 01:05:04 | 00:00:00 | |
| PG1ADW-2 | 2026-09-04 02:51:23 | 46.67162 | 15.75253 | 162° | 119km/h | 11188m | 6.3m/s | -51.2°C | 59.7% | 0hPa | 2.7V | 00:00:00 | 01:04:55 | 00:00:00 | |
| OE8JPQ-2 | 2026-09-04 02:51:17 | 46.67333 | 15.75171 | 163° | 119km/h | 11155m | 4.8m/s | -50.9°C | 63.1% | 0hPa | 2.7V | 00:00:00 | 00:00:00 | 00:00:00 | |
| PG1ADW-2 | 2026-09-04 02:51:03 | 46.67731 | 15.74976 | 161° | 119km/h | 11079m | 6.0m/s | -50.2°C | 60.4% | 0hPa | 2.9V | 00:00:00 | 00:00:00 | 00:00:00 | |
| OE5DXL-15 | 2026-09-04 02:51:02 | 46.67760 | 15.74962 | 162° | 117km/h | 11074m | 6.1m/s | -50.1°C | 60.9% | 0hPa | 2.9V | 00:00:00 | 00:00:00 | 00:00:00 | |
| OE5DRO-10 | 2026-09-04 02:50:58 | 46.67877 | 15.74906 | 163° | 117km/h | 11053m | 5.4m/s | -49.9°C | 62.9% | 0hPa | 2.9V | 00:00:00 | 00:00:00 | 00:00:00 | |
| OE8JPQ-2 | 2026-09-04 02:50:57 | 46.67906 | 15.74893 | 164° | 117km/h | 11048m | 3.6m/s | -49.9°C | 63.0% | 0hPa | 2.9V | 00:00:00 | 00:00:00 | 00:00:00 | |
| OE3JTB-15 | 2026-09-04 02:50:54 | 46.67990 | 15.74853 | 162° | 115km/h | 11034m | 5.7m/s | -49.8°C | 61.5% | 0hPa | 2.9V | 00:00:00 | 01:04:26 | 00:00:00 | |
| PETON7-10 | 2026-09-04 02:50:47 | 46.68184 | 15.74750 | 160° | 115km/h | 10993m | 6.3m/s | -49.4°C | 62.4% | 0hPa | 2.9V | 00:00:00 | 01:04:19 | 00:00:00 | |
| PG1ADW-2 | 2026-09-04 02:50:43 | 46.68299 | 15.74699 | 163° | 115km/h | 10971m | 7.7m/s | -49.2°C | 62.3% | 0hPa | 2.9V | 00:00:00 | 00:00:00 | 00:00:00 | |
| OE5DRO-10 | 2026-09-04 02:50:39 | 46.68409 | 15.74652 | 166° | 115km/h | 10946m | 5.8m/s | -49.0°C | 61.0% | 0hPa | 2.9V | 00:00:00 | 00:00:00 | 00:00:00 | |
| OE8JPQ-2 | 2026-09-04 02:50:37 | 46.68464 | 15.74630 | 165° | 115km/h | 10935m | 6.4m/s | -48.8°C | 60.8% | 0hPa | 2.7V | 00:00:00 | 01:04:09 | 00:00:00 | |
| PETON7-10 | 2026-09-04 02:50:32 | 46.68602 | 15.74562 | 161° | 115km/h | 10909m | 4.5m/s | -48.6°C | 60.8% | 0hPa | 2.7V | 00:00:00 | 00:00:00 | 00:00:00 | |
| OE3JTB-15 | 2026-09-04 02:50:25 | 46.68798 | 15.74468 | 163° | 115km/h | 10872m | 5.2m/s | -48.3°C | 61.5% | 0hPa | 2.7V | 00:00:00 | 00:00:00 | 08:30:00 | |
| PG1ADW-2 | 2026-09-04 02:50:23 | 46.68855 | 15.74440 | 160° | 113km/h | 10862m | 5.9m/s | -48.2°C | 60.9% | 0hPa | 2.9V | 00:00:00 | 00:00:00 | 00:00:00 | |
| OE5DRO-10 | 2026-09-04 02:50:20 | 46.68936 | 15.74395 | 160° | 113km/h | 10847m | 2.4m/s | -48.0°C | 61.1% | 0hPa | 2.9V | 00:00:00 | 00:00:00 | 00:00:00 | |
| OE8JPQ-2 | 2026-09-04 02:50:17 | 46.69016 | 15.74351 | 162° | 115km/h | 10831m | 5.2m/s | -47.9°C | 59.3% | 0hPa | 2.9V | 00:00:00 | 00:00:00 | 08:30:00 | |
| PG1ADW-2 | 2026-09-04 02:50:03 | 46.69401 | 15.74169 | 160° | 117km/h | 10756m | 4.1m/s | -47.1°C | 58.1% | 0hPa | 2.7V | 00:00:00 | 01:03:35 | 08:30:00 | |
| OE5DXL-15 | 2026-09-04 02:50:02 | 46.69428 | 15.74155 | 161° | 117km/h | 10751m | 4.9m/s | -47.1°C | 57.6% | 0hPa | 2.7V | 00:00:00 | 00:00:00 | 00:00:00 | |
| OE5DRO-10 | 2026-09-04 02:50:01 | 46.69455 | 15.74141 | 162° | 117km/h | 10746m | 4.8m/s | -47.1°C | 57.5% | 0hPa | 2.9V | 00:00:00 | 00:00:00 | 00:00:00 | |
| OE8JPQ-2 | 2026-09-04 02:49:57 | 46.69564 | 15.74084 | 160° | 117km/h | 10725m | 5.8m/s | -46.9°C | 57.5% | 0hPa | 2.9V | 00:00:00 | 00:00:00 | 00:00:00 | |
| OE3JTB-15 | 2026-09-04 02:49:56 | 46.69591 | 15.74069 | 158° | 119km/h | 10720m | 3.5m/s | -46.8°C | 57.7% | 0hPa | 2.9V | 00:00:00 | 00:00:00 | 00:00:00 | |
| PETON7-10 | 2026-09-04 02:49:47 | 46.69837 | 15.73923 | 161° | 119km/h | 10672m | 8.4m/s | -46.4°C | 55.0% | 0hPa | 2.9V | 00:00:00 | 00:00:00 | 08:30:00 | |
| PG1ADW-2 | 2026-09-04 02:49:43 | 46.69950 | 15.73865 | 160° | 119km/h | 10638m | 6.1m/s | -46.0°C | 55.5% | 0hPa | 2.9V | 00:00:00 | 00:00:00 | 00:00:00 | |
| OE5DRO-10 | 2026-09-04 02:49:42 | 46.69979 | 15.73850 | 161° | 119km/h | 10633m | 4.9m/s | -46.0°C | 55.5% | 0hPa | 2.9V | 00:00:00 | 00:00:00 | 00:00:00 | |
| OE8JPQ-2 | 2026-09-04 02:49:37 | 46.70122 | 15.73779 | 163° | 119km/h | 10604m | 6.0m/s | -45.7°C | 54.8% | 0hPa | 2.7V | 00:00:00 | 01:03:09 | 00:00:00 | |
| PETON7-10 | 2026-09-04 02:49:32 | 46.70267 | 15.73708 | 161° | 119km/h | 10577m | 2.7m/s | -45.4°C | 55.4% | 0hPa | 2.7V | 00:00:00 | 00:00:00 | 00:00:00 | |
| OE3JTB-15 | 2026-09-04 02:49:27 | 46.70407 | 15.73635 | 161° | 119km/h | 10546m | 6.4m/s | -45.2°C | 53.2% | 0hPa | 2.7V | 00:00:00 | 01:02:59 | 00:00:00 | |
| OE5DRO-10 | 2026-09-04 02:49:23 | 46.70519 | 15.73577 | 161° | 119km/h | 10523m | 5.9m/s | -44.9°C | 51.2% | 0hPa | 2.7V | 00:00:00 | 00:00:00 | 00:00:00 | |
| PETON7-10 | 2026-09-04 02:49:17 | 46.70690 | 15.73490 | 161° | 119km/h | 10486m | 5.0m/s | -44.6°C | 51.3% | 0hPa | 2.7V | 00:00:00 | 01:02:49 | 00:00:00 | |
| OE5DRO-10 | 2026-09-04 02:49:04 | 46.71061 | 15.73303 | 162° | 124km/h | 10414m | 4.0m/s | -43.9°C | 49.8% | 0hPa | 2.7V | 00:00:00 | 00:00:00 | 00:00:00 | |
| PG1ADW-2 | 2026-09-04 02:49:03 | 46.71090 | 15.73289 | 163° | 124km/h | 10409m | 6.9m/s | 0°C | 0% | 0hPa | 2.7V | 00:00:00 | 00:00:00 | 00:00:00 | |
| OE5DXL-15 | 2026-09-04 02:49:02 | 46.71119 | 15.73275 | 162° | 122km/h | 10403m | 4.1m/s | -43.8°C | 49.8% | 0hPa | 2.7V | 00:00:00 | 00:00:00 | 00:00:00 | |
| OE3JTB-15 | 2026-09-04 02:48:58 | 46.71235 | 15.73216 | 161° | 122km/h | 10379m | 6.1m/s | -43.5°C | 49.2% | 0hPa | 2.7V | 00:00:00 | 00:00:00 | 00:00:00 | |
| OE8JPQ-2 | 2026-09-04 02:48:57 | 46.71264 | 15.73201 | 161° | 122km/h | 10374m | 3.9m/s | -43.5°C | 49.8% | 0hPa | 2.7V | 00:00:00 | 00:00:00 | 00:00:00 | |
| PETON7-10 | 2026-09-04 02:48:47 | 46.71564 | 15.73055 | 162° | 122km/h | 10310m | 11.7m/s | -42.9°C | 47.1% | 0hPa | 2.7V | 00:00:00 | 00:00:00 | 00:00:00 | |
| OE5DRO-10 | 2026-09-04 02:48:45 | 46.71626 | 15.73024 | 161° | 120km/h | 10295m | 3.2m/s | -42.9°C | 48.0% | 0hPa | 2.7V | 00:00:00 | 00:00:00 | 08:30:00 | |
| PG1ADW-2 | 2026-09-04 02:48:43 | 46.71687 | 15.72992 | 162° | 119km/h | 10283m | 4.8m/s | 0°C | 0% | 0hPa | 2.7V | 00:00:00 | 01:02:15 | 00:00:00 | |
| OE8JPQ-2 | 2026-09-04 02:48:37 | 46.71853 | 15.72910 | 159° | 119km/h | 10242m | 4.4m/s | -42.4°C | 46.0% | 0hPa | 2.7V | 00:00:00 | 01:02:09 | 00:00:00 | |
| OE5DXL-15 | 2026-09-04 02:48:32 | 46.72001 | 15.72835 | 163° | 117km/h | 10207m | 9.5m/s | -42.0°C | 45.7% | 0hPa | 2.7V | 00:00:00 | 00:00:00 | 00:00:00 | |
| OE3JTB-15 | 2026-09-04 02:48:29 | 46.72088 | 15.72795 | 163° | 117km/h | 10188m | 6.1m/s | -41.9°C | 49.1% | 0hPa | 2.9V | 00:00:00 | 00:00:00 | 00:00:00 | |
| OE5DRO-10 | 2026-09-04 02:48:26 | 46.72171 | 15.72759 | 163° | 115km/h | 10171m | 4.1m/s | -41.8°C | 50.3% | 0hPa | 2.9V | 00:00:00 | 00:00:00 | 00:00:00 | |
| PG1ADW-2 | 2026-09-04 02:48:23 | 46.72256 | 15.72716 | 160° | 115km/h | 10153m | 8.2m/s | 0°C | 0% | 0hPa | 2.9V | 00:00:00 | 00:00:00 | 00:00:00 | |
| PETON7-10 | 2026-09-04 02:48:17 | 46.72421 | 15.72633 | 164° | 115km/h | 10118m | 6.7m/s | -41.4°C | 55.5% | 0hPa | 2.9V | 00:00:00 | 00:00:00 | 00:00:00 | |
| OE5DRO-10 | 2026-09-04 02:48:07 | 46.72694 | 15.72487 | 156° | 120km/h | 10057m | 7.3m/s | -40.9°C | 59.0% | 0hPa | 2.7V | 00:00:00 | 00:00:00 | 00:00:00 | |
| PG1ADW-2 | 2026-09-04 02:48:03 | 46.72803 | 15.72417 | 155° | 120km/h | 10033m | 6.3m/s | 0°C | 0% | 0hPa | 2.7V | 00:00:00 | 00:00:00 | 00:00:00 | |
| PETON7-10 | 2026-09-04 02:48:02 | 46.72831 | 15.72399 | 156° | 120km/h | 10026m | 7.1m/s | -40.7°C | 59.4% | 0hPa | 2.7V | 00:00:00 | 00:00:00 | 00:00:00 | |
| OE3JTB-15 | 2026-09-04 02:48:00 | 46.72888 | 15.72364 | 159° | 119km/h | 10015m | 5.4m/s | -40.6°C | 59.1% | 0hPa | 2.7V | 00:00:00 | 01:01:32 | 00:00:00 | |
| OE8JPQ-2 | 2026-09-04 02:47:57 | 46.72975 | 15.72309 | 157° | 119km/h | 9999m | 6.7m/s | -40.5°C | 58.9% | 0hPa | 2.7V | 00:00:00 | 00:00:00 | 00:00:00 | |
| OE5DRO-10 | 2026-09-04 02:47:48 | 46.73224 | 15.72149 | 157° | 119km/h | 9946m | 5.4m/s | -40.1°C | 60.9% | 0hPa | 2.7V | 00:00:00 | 00:00:00 | 00:00:00 | |
| PETON7-10 | 2026-09-04 02:47:47 | 46.73252 | 15.72131 | 157° | 119km/h | 9940m | 5.3m/s | -40.0°C | 61.5% | 0hPa | 2.9V | 00:00:00 | 01:01:19 | 00:00:00 | |
| PG1ADW-2 | 2026-09-04 02:47:42 | 46.73391 | 15.72046 | 156° | 117km/h | 9912m | 5.6m/s | 0°C | 0% | 0hPa | 2.9V | 00:00:00 | 00:00:00 | 00:00:00 | |
| OE8JPQ-2 | 2026-09-04 02:47:37 | 46.73526 | 15.71952 | 153° | 117km/h | 9883m | 4.0m/s | -39.6°C | 62.1% | 0hPa | 2.9V | 00:00:00 | 01:01:09 | 00:00:00 | |
| OE5DXL-15 | 2026-09-04 02:47:32 | 46.73659 | 15.71857 | 155° | 115km/h | 9853m | 6.4m/s | -39.3°C | 59.9% | 0hPa | 2.9V | 00:00:00 | 00:00:00 | 00:00:00 | |
| OE5DRO-10 | 2026-09-04 02:47:29 | 46.73739 | 15.71801 | 155° | 115km/h | 9836m | 3.8m/s | -39.2°C | 59.7% | 0hPa | 2.9V | 00:00:00 | 00:00:00 | 00:00:00 | |
| PG1ADW-2 | 2026-09-04 02:47:22 | 46.73924 | 15.71667 | 152° | 108km/h | 9799m | 4.9m/s | 0°C | 0% | 0hPa | 2.9V | 00:00:00 | 01:00:54 | 00:00:00 | |
| OE8JPQ-2 | 2026-09-04 02:47:17 | 46.74052 | 15.71569 | 154° | 113km/h | 9769m | 6.5m/s | -38.7°C | 63.0% | 0hPa | 2.9V | 00:00:00 | 00:00:00 | 08:30:00 | |
| OE5DRO-10 | 2026-09-04 02:47:10 | 46.74234 | 15.71436 | 153° | 111km/h | 9733m | 6.6m/s | -38.4°C | 66.6% | 0hPa | 2.9V | 00:00:00 | 00:00:00 | 00:00:00 | |
| OE8JPQ-2 | 2026-09-04 02:46:57 | 46.74561 | 15.71186 | 155° | 110km/h | 9665m | 4.6m/s | -38.0°C | 71.7% | 0hPa | 2.9V | 00:00:00 | 00:00:00 | 00:00:00 | |
| OE5DRO-10 | 2026-09-04 02:46:51 | 46.74712 | 15.71084 | 152° | 108km/h | 9634m | 5.3m/s | -37.7°C | 71.3% | 0hPa | 2.9V | 00:00:00 | 00:00:00 | 00:00:00 | |
| PETON7-10 | 2026-09-04 02:46:47 | 46.74810 | 15.71001 | 147° | 106km/h | 9608m | 8.2m/s | -37.5°C | 68.6% | 0hPa | 2.9V | 00:00:00 | 00:00:00 | 00:00:00 | |
| OE8JPQ-2 | 2026-09-04 02:46:37 | 46.75050 | 15.70818 | 152° | 104km/h | 9545m | 4.5m/s | -36.9°C | 65.8% | 0hPa | 2.7V | 00:00:00 | 01:00:09 | 00:00:00 | |
| OE3JTB-15 | 2026-09-04 02:46:33 | 46.75142 | 15.70746 | 153° | 102km/h | 9524m | 4.5m/s | -36.7°C | 65.7% | 0hPa | 2.7V | 00:00:00 | 01:00:05 | 00:00:00 | |
| OE5DXL-15 | 2026-09-04 02:46:32 | 46.75166 | 15.70729 | 155° | 102km/h | 9519m | 6.0m/s | -36.6°C | 65.4% | 0hPa | 2.7V | 00:00:00 | 00:00:00 | 00:00:00 | |
| PG1ADW-2 | 2026-09-04 02:46:31 | 46.75190 | 15.70712 | 155° | 104km/h | 9514m | 3.6m/s | 0°C | 0% | 0hPa | 2.7V | 00:00:00 | 00:00:00 | 08:30:00 | |
| PETON7-10 | 2026-09-04 02:46:30 | 46.75214 | 15.70695 | 154° | 104km/h | 9509m | 5.9m/s | -36.6°C | 64.9% | 0hPa | 2.7V | 00:00:00 | 00:00:00 | 00:00:00 | |
| OE8JPQ-2 | 2026-09-04 02:46:17 | 46.75513 | 15.70456 | 154° | 100km/h | 9442m | 4.9m/s | -35.9°C | 61.9% | 0hPa | 2.7V | 00:00:00 | 00:00:00 | 00:00:00 | |
| PETON7-10 | 2026-09-04 02:46:15 | 46.75560 | 15.70421 | 152° | 100km/h | 9432m | 3.9m/s | -35.9°C | 62.0% | 0hPa | 2.9V | 00:00:00 | 00:59:47 | 00:00:00 | |
| OE5DRO-10 | 2026-09-04 02:46:13 | 46.75605 | 15.70387 | 154° | 100km/h | 9423m | 4.6m/s | -35.8°C | 61.2% | 0hPa | 2.9V | 00:00:00 | 00:00:00 | 00:00:00 | |
| PG1ADW-2 | 2026-09-04 02:46:11 | 46.75650 | 15.70353 | 153° | 100km/h | 9413m | 3.9m/s | 0°C | 0% | 0hPa | 2.9V | 00:00:00 | 00:00:00 | 00:00:00 | |
| OE3JTB-15 | 2026-09-04 02:46:04 | 46.75808 | 15.70234 | 153° | 100km/h | 9376m | 4.8m/s | -35.4°C | 59.9% | 0hPa | 2.9V | 00:00:00 | 00:00:00 | 08:30:00 | |
| OE5DXL-15 | 2026-09-04 02:46:02 | 46.75852 | 15.70199 | 150° | 100km/h | 9366m | 4.9m/s | -35.3°C | 60.4% | 0hPa | 2.9V | 00:00:00 | 00:00:00 | 00:00:00 | |
| PETON7-10 | 2026-09-04 02:46:00 | 46.75895 | 15.70163 | 153° | 100km/h | 9357m | 4.7m/s | -35.2°C | 60.3% | 0hPa | 2.9V | 00:00:00 | 00:00:00 | 00:00:00 | |
| OE8JPQ-2 | 2026-09-04 02:45:57 | 46.75964 | 15.70117 | 157° | 100km/h | 9343m | 4.9m/s | -35.1°C | 59.4% | 0hPa | 2.9V | 00:00:00 | 00:00:00 | 00:00:00 | |
| OE5DRO-10 | 2026-09-04 02:45:54 | 46.76032 | 15.70067 | 152° | 100km/h | 9327m | 4.4m/s | -35.0°C | 60.4% | 0hPa | 2.9V | 00:00:00 | 00:00:00 | 08:30:00 | |
| PETON7-10 | 2026-09-04 02:45:45 | 46.76236 | 15.69916 | 153° | 100km/h | 9273m | 6.6m/s | -34.6°C | 63.4% | 0hPa | 2.7V | 00:00:00 | 00:00:00 | 00:00:00 | |
| PG1ADW-2 | 2026-09-04 02:45:40 | 46.76348 | 15.69824 | 151° | 100km/h | 9247m | 4.8m/s | 0°C | 0% | 0hPa | 2.7V | 00:00:00 | 00:00:00 | 00:00:00 | |
| OE3JTB-15 | 2026-09-04 02:45:35 | 46.76458 | 15.69735 | 152° | 100km/h | 9220m | 6.2m/s | 0°C | 0% | 0hPa | 2.7V | 00:00:00 | 00:00:00 | 00:00:00 | |
| OE5DXL-15 | 2026-09-04 02:45:32 | 46.76526 | 15.69684 | 153° | 100km/h | 9205m | 3.5m/s | -34.0°C | 63.7% | 0hPa | 2.7V | 00:00:00 | 00:00:00 | 00:00:00 | |
| PETON7-10 | 2026-09-04 02:45:30 | 46.76571 | 15.69648 | 151° | 102km/h | 9195m | 3.8m/s | -33.9°C | 63.3% | 0hPa | 2.9V | 00:00:00 | 00:59:02 | 00:00:00 | |
| OE8JPQ-2 | 2026-09-04 02:45:28 | 46.76616 | 15.69611 | 151° | 100km/h | 9185m | 5.7m/s | -33.8°C | 62.6% | 0hPa | 2.9V | 00:00:00 | 00:59:00 | 00:00:00 | |
| PG1ADW-2 | 2026-09-04 02:45:20 | 46.76790 | 15.69462 | 152° | 99km/h | 9147m | 5.6m/s | 0°C | 0% | 0hPa | 2.9V | 00:00:00 | 00:58:52 | 00:00:00 | |
| OE5DRO-10 | 2026-09-04 02:45:16 | 46.76879 | 15.69386 | 149° | 100km/h | 9128m | 4.0m/s | -33.3°C | 61.7% | 0hPa | 2.9V | 00:00:00 | 00:00:00 | 00:00:00 | |
| PETON7-10 | 2026-09-04 02:45:13 | 46.76944 | 15.69327 | 149° | 100km/h | 9111m | 4.2m/s | -33.2°C | 61.6% | 0hPa | 2.9V | 00:00:00 | 00:00:00 | 08:30:00 | |
| OE8JPQ-2 | 2026-09-04 02:45:08 | 46.77050 | 15.69231 | 149° | 100km/h | 9086m | 4.0m/s | -32.9°C | 61.1% | 0hPa | 2.9V | 00:00:00 | 00:00:00 | 00:00:00 | |
| OE3JTB-15 | 2026-09-04 02:45:06 | 46.77094 | 15.69194 | 151° | 99km/h | 9077m | 3.4m/s | -32.8°C | 61.7% | 0hPa | 2.9V | 00:00:00 | 00:58:38 | 00:00:00 | |
| OE5DXL-15 | 2026-09-04 02:45:02 | 46.77184 | 15.69124 | 150° | 99km/h | 9058m | 3.6m/s | -32.6°C | 60.9% | 0hPa | 2.9V | 00:00:00 | 00:00:00 | 00:00:00 | |
| PETON7-10 | 2026-09-04 02:44:58 | 46.77270 | 15.69048 | 149° | 100km/h | 9038m | 4.3m/s | -32.5°C | 60.1% | 0hPa | 2.9V | 00:00:00 | 00:00:00 | 00:00:00 | |
| OE5DRO-10 | 2026-09-04 02:44:57 | 46.77292 | 15.69028 | 148° | 99km/h | 9033m | 4.9m/s | -32.4°C | 60.0% | 0hPa | 2.9V | 00:00:00 | 00:00:00 | 00:00:00 | |
| OE8JPQ-2 | 2026-09-04 02:44:48 | 46.77490 | 15.68859 | 151° | 97km/h | 8988m | 4.4m/s | -32.0°C | 58.6% | 0hPa | 2.7V | 00:00:00 | 00:00:00 | 00:00:00 | |
| PETON7-10 | 2026-09-04 02:44:43 | 46.77596 | 15.68774 | 152° | 99km/h | 8964m | 5.2m/s | -31.8°C | 58.0% | 0hPa | 2.7V | 00:00:00 | 00:58:15 | 00:00:00 | |
| OE5DRO-10 | 2026-09-04 02:44:38 | 46.77703 | 15.68683 | 150° | 99km/h | 8942m | 4.5m/s | -31.5°C | 57.6% | 0hPa | 2.7V | 00:00:00 | 00:00:00 | 00:00:00 | |
| OE3JTB-15 | 2026-09-04 02:44:37 | 46.77724 | 15.68664 | 148° | 99km/h | 8937m | 4.9m/s | -31.5°C | 57.4% | 0hPa | 2.7V | 00:00:00 | 00:00:00 | 00:00:00 | |
| OE5DXL-15 | 2026-09-04 02:44:32 | 46.77827 | 15.68569 | 148° | 100km/h | 8913m | 3.6m/s | -31.3°C | 57.4% | 0hPa | 2.9V | 00:00:00 | 00:00:00 | 00:00:00 | |
| PG1ADW-2 | 2026-09-04 02:44:30 | 46.77869 | 15.68532 | 149° | 99km/h | 8904m | 3.6m/s | 0°C | 0% | 0hPa | 2.9V | 00:00:00 | 00:00:00 | 00:00:00 | |
| OE8JPQ-2 | 2026-09-04 02:44:26 | 46.77954 | 15.68455 | 150° | 99km/h | 8885m | 4.0m/s | -31.0°C | 56.8% | 0hPa | 2.9V | 00:00:00 | 00:57:58 | 00:00:00 | |
| OE5DRO-10 | 2026-09-04 02:44:19 | 46.78101 | 15.68320 | 146° | 100km/h | 8852m | 5.6m/s | -30.7°C | 56.6% | 0hPa | 2.9V | 00:00:00 | 00:00:00 | 00:00:00 | |
| PETON7-10 | 2026-09-04 02:44:16 | 46.78166 | 15.68259 | 149° | 102km/h | 8838m | 3.7m/s | -30.6°C | 56.4% | 0hPa | 2.9V | 00:00:00 | 00:00:00 | 00:00:00 | |
| OE3JTB-15 | 2026-09-04 02:44:08 | 46.78333 | 15.68110 | 148° | 102km/h | 8804m | 4.3m/s | -30.3°C | 56.6% | 0hPa | 2.9V | 00:00:00 | 00:00:00 | 00:00:00 | |
| OE8JPQ-2 | 2026-09-04 02:44:06 | 46.78378 | 15.68065 | 146° | 104km/h | 8796m | 3.4m/s | -30.2°C | 56.6% | 0hPa | 2.9V | 00:00:00 | 00:00:00 | 08:30:00 | |
| OE5DXL-15 | 2026-09-04 02:44:02 | 46.78469 | 15.67982 | 151° | 102km/h | 8776m | 7.3m/s | -30.1°C | 56.5% | 0hPa | 2.9V | 00:00:00 | 00:00:00 | 00:00:00 | |
| OE5DRO-10 | 2026-09-04 02:44:00 | 46.78511 | 15.67946 | 149° | 102km/h | 8761m | 8.0m/s | -30.0°C | 57.2% | 0hPa | 2.9V | 00:00:00 | 00:00:00 | 00:00:00 | |
| PETON7-10 | 2026-09-04 02:43:59 | 46.78532 | 15.67927 | 148° | 102km/h | 8754m | 5.5m/s | -29.9°C | 58.2% | 0hPa | 2.7V | 00:00:00 | 00:00:00 | 00:00:00 | |
| PG1ADW-2 | 2026-09-04 02:43:53 | 46.78663 | 15.67806 | 149° | 102km/h | 8721m | 3.1m/s | 0°C | 0% | 0hPa | 2.7V | 00:00:00 | 00:00:00 | 00:00:00 | |
| PETON7-10 | 2026-09-04 02:43:44 | 46.78861 | 15.67631 | 150° | 102km/h | 8680m | 5.6m/s | -29.5°C | 63.5% | 0hPa | 2.7V | 00:00:00 | 00:57:16 | 00:00:00 | |
| OE5DRO-10 | 2026-09-04 02:43:41 | 46.78928 | 15.67573 | 149° | 102km/h | 8667m | 3.4m/s | -29.4°C | 67.0% | 0hPa | 2.7V | 00:00:00 | 00:00:00 | 00:00:00 | |
| OE3JTB-15 | 2026-09-04 02:43:39 | 46.78972 | 15.67533 | 148° | 102km/h | 8658m | 3.5m/s | -29.4°C | 68.4% | 0hPa | 2.7V | 00:00:00 | 00:57:11 | 00:00:00 | |
| OE5DXL-15 | 2026-09-04 02:43:32 | 46.79129 | 15.67401 | 152° | 104km/h | 8628m | 5.7m/s | 0°C | 0% | 0hPa | 2.7V | 00:00:00 | 00:00:00 | 00:00:00 | |
| PETON7-10 | 2026-09-04 02:43:26 | 46.79267 | 15.67294 | 154° | 102km/h | 8599m | 4.5m/s | -29.0°C | 69.5% | 0hPa | 2.7V | 00:00:00 | 00:00:00 | 00:00:00 | |
| OE5DRO-10 | 2026-09-04 02:43:22 | 46.79357 | 15.67224 | 152° | 104km/h | 8582m | 5.3m/s | -28.8°C | 69.0% | 0hPa | 2.9V | 00:00:00 | 00:00:00 | 00:00:00 | |
| PETON7-10 | 2026-09-04 02:43:11 | 46.79608 | 15.67018 | 153° | 106km/h | 8530m | 4.8m/s | -28.4°C | 68.3% | 0hPa | 2.9V | 00:00:00 | 00:00:00 | 00:00:00 | |
| OE3JTB-15 | 2026-09-04 02:43:10 | 46.79631 | 15.67000 | 153° | 102km/h | 8525m | 5.7m/s | -28.3°C | 68.2% | 0hPa | 2.9V | 00:00:00 | 00:00:00 | 00:00:00 | |
| PG1ADW-2 | 2026-09-04 02:43:06 | 46.79726 | 15.66927 | 150° | 104km/h | 8505m | 5.4m/s | 0°C | 0% | 0hPa | 2.9V | 00:00:00 | 00:00:00 | 00:00:00 | |
| OE5DRO-10 | 2026-09-04 02:43:03 | 46.79797 | 15.66863 | 149° | 100km/h | 8490m | 5.0m/s | -28.1°C | 68.9% | 0hPa | 2.9V | 00:00:00 | 00:00:00 | 08:30:00 | |
| OE5DXL-15 | 2026-09-04 02:43:02 | 46.79820 | 15.66842 | 149° | 100km/h | 8484m | 6.0m/s | 0°C | 0% | 0hPa | 2.9V | 00:00:00 | 00:56:34 | 00:00:00 | |
| PETON7-10 | 2026-09-04 02:42:56 | 46.79949 | 15.66732 | 152° | 100km/h | 8448m | 3.4m/s | -27.7°C | 68.3% | 0hPa | 2.9V | 00:00:00 | 00:56:28 | 00:00:00 | |
| OE8JPQ-2 | 2026-09-04 02:42:48 | 46.80129 | 15.66579 | 151° | 99km/h | 8407m | 3.8m/s | -27.4°C | 66.7% | 0hPa | 2.9V | 00:00:00 | 00:00:00 | 00:00:00 | |
| OE5DRO-10 | 2026-09-04 02:42:44 | 46.80215 | 15.66503 | 150° | 97km/h | 8387m | 4.8m/s | -27.2°C | 65.8% | 0hPa | 2.9V | 00:00:00 | 00:00:00 | 00:00:00 | |
| OE3JTB-15 | 2026-09-04 02:42:41 | 46.80280 | 15.66446 | 149° | 97km/h | 8374m | 3.3m/s | -27.1°C | 65.3% | 0hPa | 2.9V | 00:00:00 | 00:00:00 | 00:00:00 | |
| PETON7-10 | 2026-09-04 02:42:39 | 46.80321 | 15.66409 | 150° | 97km/h | 8365m | 3.4m/s | -27.0°C | 65.0% | 0hPa | 2.9V | 00:00:00 | 00:00:00 | 08:30:00 | |
| OE5DXL-15 | 2026-09-04 02:42:32 | 46.80468 | 15.66278 | 149° | 97km/h | 8333m | 5.1m/s | 0°C | 0% | 0hPa | 2.9V | 00:00:00 | 00:00:00 | 00:00:00 | |
| OE5DRO-10 | 2026-09-04 02:42:25 | 46.80616 | 15.66146 | 149° | 99km/h | 8303m | 3.8m/s | -26.5°C | 62.5% | 0hPa | 2.9V | 00:00:00 | 00:00:00 | 00:00:00 | |
| PG1ADW-2 | 2026-09-04 02:42:24 | 46.80637 | 15.66127 | 149° | 99km/h | 8299m | 4.3m/s | 0°C | 0% | 0hPa | 2.9V | 00:00:00 | 00:00:00 | 00:00:00 | |
| OE3JTB-15 | 2026-09-04 02:42:12 | 46.80890 | 15.65904 | 148° | 99km/h | 8245m | 3.8m/s | -25.9°C | 62.2% | 0hPa | 2.9V | 00:00:00 | 00:55:44 | 00:00:00 | |
| OE5DRO-10 | 2026-09-04 02:42:06 | 46.81018 | 15.65780 | 147° | 99km/h | 8214m | 6.2m/s | -25.8°C | 62.8% | 0hPa | 2.9V | 00:00:00 | 00:00:00 | 00:00:00 | |
| PG1ADW-2 | 2026-09-04 02:42:01 | 46.81122 | 15.65682 | 147° | 97km/h | 8191m | 3.3m/s | 0°C | 0% | 0hPa | 2.9V | 00:00:00 | 00:00:00 | 00:00:00 | |
| OE5DRO-10 | 2026-09-04 02:41:47 | 46.81410 | 15.65393 | 147° | 100km/h | 8126m | 6.0m/s | -25.0°C | 60.0% | 0hPa | 2.9V | 00:00:00 | 00:00:00 | 00:00:00 | |
| OE3JTB-15 | 2026-09-04 02:41:43 | 46.81493 | 15.65309 | 145° | 97km/h | 8104m | 3.4m/s | -24.8°C | 59.8% | 0hPa | 2.9V | 00:00:00 | 00:00:00 | 08:30:00 | |
| OE8JPQ-2 | 2026-09-04 02:41:33 | 46.81701 | 15.65093 | 143° | 99km/h | 8053m | 5.9m/s | -24.3°C | 58.9% | 0hPa | 2.9V | 00:00:00 | 00:55:05 | 00:00:00 | |
| OE5DRO-10 | 2026-09-04 02:41:28 | 46.81803 | 15.64979 | 145° | 99km/h | 8031m | 4.0m/s | -24.1°C | 59.5% | 0hPa | 2.9V | 00:00:00 | 00:00:00 | 00:00:00 | |
| OE8JPQ-2 | 2026-09-04 02:41:13 | 46.82100 | 15.64657 | 143° | 100km/h | 7966m | 5.5m/s | -23.6°C | 59.0% | 0hPa | 2.9V | 00:00:00 | 00:00:00 | 00:00:00 | |
| OE5DRO-10 | 2026-09-04 02:41:09 | 46.82185 | 15.64566 | 144° | 100km/h | 7948m | 4.8m/s | -23.4°C | 58.8% | 0hPa | 2.9V | 00:00:00 | 00:00:00 | 00:00:00 | |
| S52SK | 2026-09-04 02:41:06 | 46.82246 | 15.64500 | 145° | 99km/h | 7935m | 4.0m/s | -23.4°C | 55.0% | 0hPa | 2.7V | 00:00:00 | 00:00:00 | 00:00:00 | |
| OM5KV | 2026-09-04 02:41:05 | 46.82266 | 15.64479 | 146° | 100km/h | 7930m | 5.4m/s | -23.3°C | 55.0% | 0hPa | 2.7V | 00:00:00 | 00:00:00 | 00:00:00 | |
| OM5KV | 2026-09-04 02:41:01 | 46.82347 | 15.64393 | 144° | 100km/h | 7911m | 4.8m/s | -23.2°C | 55.4% | 0hPa | 2.7V | 00:00:00 | 00:00:00 | 00:00:00 | |
| OM5KV | 2026-09-04 02:40:59 | 46.82387 | 15.64349 | 142° | 99km/h | 7903m | 4.6m/s | -23.1°C | 55.5% | 0hPa | 2.7V | 00:00:00 | 00:00:00 | 00:00:00 | |
| OM5KV | 2026-09-04 02:40:54 | 46.82488 | 15.64242 | 146° | 100km/h | 7882m | 4.6m/s | -23.0°C | 55.6% | 0hPa | 2.7V | 00:00:00 | 00:00:00 | 00:00:00 | |
| OE3OSB-13 | 2026-09-04 02:40:50 | 46.82592 | 15.64137 | 145° | 95km/h | 7860m | 5.5m/s | -22.8°C | 54.7% | -1.0hPa | 2.7V | 00:00:00 | 00:00:00 | 00:00:00 | |
| OE5DRO-10 | 2026-09-04 02:40:31 | 46.82952 | 15.63762 | 144° | 97km/h | 7776m | 4.0m/s | -21.9°C | 53.8% | 0hPa | 2.7V | 00:00:00 | 00:00:00 | 00:00:00 | |
| OE5DRO-10 | 2026-09-04 02:40:12 | 46.83329 | 15.63358 | 144° | 97km/h | 7693m | 4.2m/s | -21.4°C | 56.3% | 0hPa | 2.7V | 00:00:00 | 00:00:00 | 08:30:00 | |
| OE5DRO-10 | 2026-09-04 02:39:53 | 46.83706 | 15.62960 | 144° | 99km/h | 7609m | 3.6m/s | -20.8°C | 58.2% | 0hPa | 2.9V | 00:00:00 | 00:00:00 | 00:00:00 | |
| S52SK | 2026-09-04 02:39:52 | 46.83727 | 15.62938 | 144° | 97km/h | 7605m | 5.0m/s | -20.8°C | 54.9% | 0hPa | 2.9V | 00:00:00 | 00:00:00 | 00:00:00 | |
| OE5DRO-10 | 2026-09-04 02:39:34 | 46.84094 | 15.62571 | 147° | 99km/h | 7526m | 4.2m/s | -20.2°C | 58.9% | 0hPa | 2.9V | 00:00:00 | 00:00:00 | 00:00:00 | |
| OM5KV | 2026-09-04 02:39:33 | 46.84115 | 15.62551 | 148° | 97km/h | 7522m | 3.8m/s | -20.2°C | 55.6% | 0hPa | 2.9V | 00:00:00 | 00:00:00 | 00:00:00 | |
| OE5DRO-10 | 2026-09-04 02:39:15 | 46.84495 | 15.62210 | 149° | 97km/h | 7443m | 2.9m/s | -19.8°C | 64.4% | 0hPa | 2.9V | 00:00:00 | 00:00:00 | 00:00:00 | |
| OE3JTB-15 | 2026-09-04 02:38:57 | 46.84876 | 15.61884 | 150° | 93km/h | 7367m | 3.8m/s | -19.4°C | 68.5% | 0hPa | 2.7V | 00:00:00 | 00:00:00 | 00:00:00 | |
| OE5DRO-10 | 2026-09-04 02:38:56 | 46.84898 | 15.61865 | 150° | 99km/h | 7362m | 5.1m/s | -19.4°C | 68.7% | 0hPa | 2.7V | 00:00:00 | 00:00:00 | 00:00:00 | |
| OE8JPQ-2 | 2026-09-04 02:38:48 | 46.85071 | 15.61714 | 149° | 97km/h | 7327m | 3.9m/s | -19.2°C | 71.4% | 0hPa | 2.7V | 00:00:00 | 00:52:20 | 00:00:00 | |
| OE5DRO-10 | 2026-09-04 02:38:37 | 46.85300 | 15.61500 | 148° | 95km/h | 7278m | 3.5m/s | -19.0°C | 71.7% | 0hPa | 2.7V | 00:00:00 | 00:00:00 | 00:00:00 | |
| OE8JPQ-2 | 2026-09-04 02:38:28 | 46.85485 | 15.61330 | 148° | 91km/h | 7236m | 5.3m/s | -18.7°C | 68.4% | 0hPa | 2.7V | 00:00:00 | 00:00:00 | 00:00:00 | |
| OE5DRO-10 | 2026-09-04 02:38:18 | 46.85682 | 15.61138 | 145° | 91km/h | 7193m | 4.7m/s | -18.5°C | 69.1% | 0hPa | 2.9V | 00:00:00 | 00:00:00 | 00:00:00 | |
| OE8JPQ-2 | 2026-09-04 02:38:07 | 46.85887 | 15.60926 | 146° | 91km/h | 7148m | 4.3m/s | -18.2°C | 72.9% | 0hPa | 2.9V | 00:00:00 | 00:00:00 | 00:00:00 | |
| OE3JTB-15 | 2026-09-04 02:38:04 | 46.85943 | 15.60867 | 143° | 89km/h | 7136m | 3.9m/s | -18.1°C | 72.9% | 0hPa | 2.9V | 00:00:00 | 00:51:36 | 00:00:00 | |
| OE5DRO-10 | 2026-09-04 02:37:59 | 46.86038 | 15.60771 | 147° | 89km/h | 7116m | 2.7m/s | -17.9°C | 73.5% | 0hPa | 2.9V | 00:00:00 | 00:00:00 | 00:00:00 | |
| PETON7-10 | 2026-09-04 02:37:55 | 46.86112 | 15.60696 | 144° | 88km/h | 7097m | 5.3m/s | -18.0°C | 79.5% | 0hPa | 2.9V | 00:00:00 | 00:51:27 | 00:00:00 | |
| OE8JPQ-2 | 2026-09-04 02:37:47 | 46.86260 | 15.60542 | 150° | 86km/h | 7058m | 5.2m/s | -17.8°C | 80.6% | 0hPa | 2.9V | 00:00:00 | 00:51:19 | 00:00:00 | |
| PETON7-10 | 2026-09-04 02:37:40 | 46.86385 | 15.60414 | 142° | 84km/h | 7022m | 6.0m/s | -17.5°C | 79.3% | 0hPa | 2.9V | 00:00:00 | 00:00:00 | 00:00:00 | |
| OE3JTB-15 | 2026-09-04 02:37:35 | 46.86464 | 15.60312 | 138° | 86km/h | 7000m | 3.2m/s | -17.3°C | 79.4% | 0hPa | 2.9V | 00:00:00 | 00:00:00 | 00:00:00 | |
| OE8JPQ-2 | 2026-09-04 02:37:27 | 46.86593 | 15.60153 | 143° | 80km/h | 6953m | 5.4m/s | -17.0°C | 76.6% | 0hPa | 2.9V | 00:00:00 | 00:00:00 | 08:30:00 | |
| PETON7-10 | 2026-09-04 02:37:25 | 46.86626 | 15.60114 | 140° | 80km/h | 6940m | 6.9m/s | -16.9°C | 76.1% | 0hPa | 2.9V | 00:00:00 | 00:00:00 | 00:00:00 | |
| OE5DRO-10 | 2026-09-04 02:37:21 | 46.86690 | 15.60039 | 141° | 80km/h | 6920m | 5.3m/s | -16.7°C | 76.3% | 0hPa | 2.9V | 00:00:00 | 00:00:00 | 08:30:00 | |
| PETON7-10 | 2026-09-04 02:37:10 | 46.86867 | 15.59844 | 144° | 82km/h | 6875m | 3.8m/s | -16.3°C | 75.0% | 0hPa | 2.9V | 00:00:00 | 00:50:42 | 00:00:00 | |
| OE8JPQ-2 | 2026-09-04 02:37:07 | 46.86916 | 15.59790 | 143° | 86km/h | 6862m | 3.8m/s | -16.2°C | 74.5% | 0hPa | 2.9V | 00:00:00 | 00:00:00 | 00:00:00 | |
| OE5DRO-10 | 2026-09-04 02:37:02 | 46.86997 | 15.59697 | 143° | 86km/h | 6841m | 5.1m/s | -16.1°C | 75.2% | 0hPa | 2.9V | 00:00:00 | 00:00:00 | 00:00:00 | |
| PETON7-10 | 2026-09-04 02:36:55 | 46.87113 | 15.59567 | 143° | 86km/h | 6810m | 3.8m/s | 0°C | 0% | 0hPa | 2.9V | 00:00:00 | 00:00:00 | 00:00:00 | |
| OE3JTB-15 | 2026-09-04 02:36:46 | 46.87264 | 15.59375 | 140° | 80km/h | 6760m | 8.2m/s | -15.4°C | 71.7% | 0hPa | 2.9V | 00:00:00 | 00:00:00 | 00:00:00 | |
| OE8JPQ-2 | 2026-09-04 02:36:45 | 46.87280 | 15.59355 | 140° | 80km/h | 6753m | 7.2m/s | -15.3°C | 71.5% | 0hPa | 2.9V | 00:00:00 | 00:50:17 | 00:00:00 | |
| OE5DRO-10 | 2026-09-04 02:36:43 | 46.87313 | 15.59315 | 142° | 78km/h | 6741m | 6.3m/s | -15.2°C | 71.1% | 0hPa | 2.9V | 00:00:00 | 00:00:00 | 00:00:00 | |
| PETON7-10 | 2026-09-04 02:36:40 | 46.87360 | 15.59263 | 144° | 80km/h | 6726m | 4.2m/s | 0°C | 0% | 0hPa | 2.9V | 00:00:00 | 00:00:00 | 00:00:00 | |
| OE8JPQ-2 | 2026-09-04 02:36:25 | 46.87601 | 15.58996 | 145° | 75km/h | 6661m | 3.8m/s | -14.6°C | 72.3% | 0hPa | 2.9V | 00:00:00 | 00:00:00 | 00:00:00 | |
| OE5DRO-10 | 2026-09-04 02:36:24 | 46.87616 | 15.58979 | 143° | 75km/h | 6656m | 5.2m/s | -14.5°C | 72.5% | 0hPa | 2.9V | 00:00:00 | 00:00:00 | 00:00:00 | |
| OE3JTB-15 | 2026-09-04 02:36:17 | 46.87725 | 15.58858 | 144° | 75km/h | 6624m | 4.6m/s | -14.2°C | 70.3% | 0hPa | 2.9V | 00:00:00 | 00:49:49 | 00:00:00 | |
| PETON7-10 | 2026-09-04 02:36:10 | 46.87827 | 15.58742 | 146° | 77km/h | 6591m | 4.0m/s | 0°C | 0% | 0hPa | 2.9V | 00:00:00 | 00:00:00 | 00:00:00 | |
| OE8JPQ-2 | 2026-09-04 02:36:05 | 46.87910 | 15.58665 | 150° | 77km/h | 6567m | 4.4m/s | -13.7°C | 66.2% | 0hPa | 2.9V | 00:00:00 | 00:00:00 | 00:00:00 | |
| OE5DRO-10 | 2026-09-04 02:35:46 | 46.88209 | 15.58380 | 147° | 77km/h | 6482m | 5.1m/s | -13.1°C | 67.3% | 0hPa | 2.9V | 00:00:00 | 00:00:00 | 00:00:00 | |
| OE8JPQ-2 | 2026-09-04 02:35:29 | 46.88474 | 15.58099 | 142° | 73km/h | 6407m | 3.8m/s | -13.1°C | 73.2% | 0hPa | 2.9V | 00:00:00 | 00:49:01 | 00:00:00 | |
| OE5DRO-10 | 2026-09-04 02:35:27 | 46.88504 | 15.58065 | 141° | 75km/h | 6397m | 4.3m/s | -13.2°C | 76.4% | 0hPa | 2.9V | 00:00:00 | 00:00:00 | 00:00:00 | |
| OE3JTB-15 | 2026-09-04 02:35:15 | 46.88686 | 15.57868 | 143° | 75km/h | 6343m | 5.2m/s | -12.8°C | 76.9% | 0hPa | 2.9V | 00:00:00 | 00:00:00 | 00:00:00 | |
| OE5DRO-10 | 2026-09-04 02:35:08 | 46.88796 | 15.57765 | 146° | 77km/h | 6315m | 4.5m/s | -12.7°C | 77.8% | 0hPa | 2.9V | 00:00:00 | 00:00:00 | 00:00:00 | |
| OE8JPQ-2 | 2026-09-04 02:35:06 | 46.88828 | 15.57733 | 144° | 75km/h | 6307m | 4.2m/s | -12.6°C | 78.2% | 0hPa | 2.9V | 00:00:00 | 00:00:00 | 00:00:00 | |
| OE5DRO-10 | 2026-09-04 02:34:49 | 46.89099 | 15.57468 | 149° | 75km/h | 6234m | 3.0m/s | -12.3°C | 79.5% | 0hPa | 2.9V | 00:00:00 | 00:00:00 | 00:00:00 | |
| OE8JPQ-2 | 2026-09-04 02:34:46 | 46.89149 | 15.57423 | 147° | 75km/h | 6220m | 4.9m/s | -12.2°C | 78.7% | 0hPa | 2.9V | 00:00:00 | 00:00:00 | 00:00:00 | |
| OE5DRO-10 | 2026-09-04 02:34:30 | 46.89409 | 15.57189 | 157° | 71km/h | 6144m | 6.6m/s | -11.6°C | 76.0% | 0hPa | 2.9V | 00:00:00 | 00:00:00 | 08:30:00 | |
| OE8JPQ-2 | 2026-09-04 02:34:26 | 46.89476 | 15.57136 | 147° | 68km/h | 6122m | 7.3m/s | -11.5°C | 77.5% | 0hPa | 2.9V | 00:00:00 | 00:47:58 | 00:00:00 | |
| OE5DRO-10 | 2026-09-04 02:34:11 | 46.89699 | 15.56937 | 152° | 62km/h | 6046m | 5.8m/s | -11.2°C | 77.7% | 0hPa | 2.9V | 00:00:00 | 00:00:00 | 00:00:00 | |
| OE8JPQ-2 | 2026-09-04 02:34:05 | 46.89782 | 15.56867 | 147° | 64km/h | 6018m | 4.7m/s | -11.0°C | 78.7% | 0hPa | 2.9V | 00:00:00 | 00:00:00 | 08:30:00 | |
| OE5DRO-10 | 2026-09-04 02:33:52 | 46.89958 | 15.56710 | 152° | 66km/h | 5961m | 5.4m/s | -10.6°C | 80.9% | 0hPa | 2.9V | 00:00:00 | 00:00:00 | 00:00:00 | |
| OE8JPQ-2 | 2026-09-04 02:33:45 | 46.90061 | 15.56632 | 152° | 66km/h | 5930m | 5.5m/s | -10.7°C | 83.1% | 0hPa | 2.9V | 00:00:00 | 00:00:00 | 00:00:00 | |
| OE3JTB-15 | 2026-09-04 02:33:34 | 46.90220 | 15.56499 | 147° | 62km/h | 5882m | 3.9m/s | -10.4°C | 81.6% | 0hPa | 2.9V | 00:00:00 | 00:47:06 | 00:00:00 | |
| OE5DRO-10 | 2026-09-04 02:33:33 | 46.90234 | 15.56486 | 147° | 66km/h | 5878m | 4.4m/s | -10.4°C | 81.2% | 0hPa | 2.9V | 00:00:00 | 00:00:00 | 00:00:00 | |
| OE8JPQ-2 | 2026-09-04 02:33:25 | 46.90347 | 15.56379 | 143° | 62km/h | 5842m | 4.3m/s | -10.6°C | 84.5% | 0hPa | 2.9V | 00:00:00 | 00:46:57 | 00:00:00 | |
| OE5DRO-10 | 2026-09-04 02:33:14 | 46.90492 | 15.56226 | 148° | 60km/h | 5799m | 4.6m/s | -10.5°C | 87.9% | 0hPa | 2.9V | 00:00:00 | 00:00:00 | 00:00:00 | |
| OE8JPQ-2 | 2026-09-04 02:33:05 | 46.90603 | 15.56110 | 144° | 60km/h | 5762m | 5.6m/s | -10.2°C | 88.2% | 0hPa | 2.9V | 00:00:00 | 00:00:00 | 00:00:00 | |
| OE5DRO-10 | 2026-09-04 02:32:55 | 46.90729 | 15.55979 | 152° | 62km/h | 5713m | 4.7m/s | -10.1°C | 0% | 0hPa | 2.9V | 00:00:00 | 00:00:00 | 00:00:00 | |
| OE8JPQ-2 | 2026-09-04 02:32:45 | 46.90853 | 15.55860 | 152° | 66km/h | 5661m | 4.2m/s | -10.2°C | 98.2% | 0hPa | 2.9V | 00:00:00 | 00:00:00 | 00:00:00 | |
| OE3JTB-15 | 2026-09-04 02:32:40 | 46.90925 | 15.55797 | 148° | 69km/h | 5636m | 4.9m/s | -10.0°C | 97.2% | 0hPa | 2.9V | 00:00:00 | 00:00:00 | 08:30:00 | |
| OE5DRO-10 | 2026-09-04 02:32:36 | 46.90980 | 15.55742 | 148° | 66km/h | 5617m | 4.8m/s | 0°C | 0% | 0hPa | 2.9V | 00:00:00 | 00:00:00 | 00:00:00 | |
| OE8JPQ-2 | 2026-09-04 02:32:25 | 46.91138 | 15.55618 | 150° | 69km/h | 5565m | 6.0m/s | -9.3°C | 92.4% | 0hPa | 2.9V | 00:00:00 | 00:45:57 | 00:00:00 | |
| OE5DRO-10 | 2026-09-04 02:32:17 | 46.91253 | 15.55523 | 149° | 69km/h | 5527m | 7.7m/s | 0°C | 0% | 0hPa | 2.9V | 00:00:00 | 00:00:00 | 00:00:00 | |
| OM5KV | 2026-09-04 02:32:16 | 46.91266 | 15.55511 | 150° | 64km/h | 5521m | 5.7m/s | -9.1°C | 88.0% | 0hPa | 2.9V | 00:00:00 | 00:00:00 | 00:00:00 | |
| OE5DRO-10 | 2026-09-04 02:31:58 | 46.91545 | 15.55285 | 151° | 69km/h | 5438m | 4.1m/s | 0°C | 0% | 0hPa | 2.9V | 00:00:00 | 00:00:00 | 00:00:00 | |
| OE3JTB-15 | 2026-09-04 02:31:51 | 46.91655 | 15.55200 | 151° | 69km/h | 5409m | 5.1m/s | -8.1°C | 86.8% | 0hPa | 2.9V | 00:00:00 | 00:00:00 | 00:00:00 | |
| OE5DRO-10 | 2026-09-04 02:31:39 | 46.91840 | 15.55048 | 151° | 69km/h | 5358m | 4.2m/s | 0°C | 0% | 0hPa | 2.9V | 00:00:00 | 00:00:00 | 00:00:00 | |
| OE8JPQ-2 | 2026-09-04 02:31:30 | 46.91980 | 15.54936 | 153° | 68km/h | 5323m | 4.4m/s | 0°C | 0% | 0hPa | 2.9V | 00:00:00 | 00:00:00 | 00:00:00 | |
| OM5KV | 2026-09-04 02:31:29 | 46.91995 | 15.54925 | 153° | 68km/h | 5319m | 3.7m/s | -7.5°C | 0% | 0hPa | 2.9V | 00:00:00 | 00:00:00 | 00:00:00 | |
| OM5KV | 2026-09-04 02:31:28 | 46.92010 | 15.54912 | 153° | 68km/h | 5316m | 3.4m/s | -7.4°C | 82.8% | 0hPa | 2.9V | 00:00:00 | 00:00:00 | 00:00:00 | |
| OM5KV | 2026-09-04 02:31:23 | 46.92087 | 15.54850 | 151° | 71km/h | 5297m | 3.7m/s | -7.3°C | 0% | 0hPa | 2.9V | 00:00:00 | 00:00:00 | 00:00:00 | |
| OM5KV | 2026-09-04 02:31:22 | 46.92103 | 15.54836 | 150° | 71km/h | 5293m | 3.2m/s | -7.2°C | 82.1% | 0hPa | 2.9V | 00:00:00 | 00:00:00 | 00:00:00 | |
| OM5KV | 2026-09-04 02:31:21 | 46.92118 | 15.54823 | 150° | 71km/h | 5289m | 3.7m/s | -7.2°C | 81.8% | 0hPa | 2.9V | 00:00:00 | 00:00:00 | 00:00:00 | |
| OM5KV | 2026-09-04 02:31:17 | 46.92180 | 15.54773 | 155° | 68km/h | 5274m | 4.5m/s | -7.1°C | 81.1% | 0hPa | 2.9V | 00:00:00 | 00:00:00 | 00:00:00 | |
| OM5KV | 2026-09-04 02:31:14 | 46.92226 | 15.54740 | 154° | 68km/h | 5263m | 3.9m/s | -7.1°C | 81.8% | 0hPa | 2.9V | 00:00:00 | 00:00:00 | 00:00:00 | |
| OE8JPQ-2 | 2026-09-04 02:30:54 | 46.92531 | 15.54496 | 150° | 69km/h | 5186m | 2.9m/s | 0°C | 0% | 0hPa | 2.9V | 00:00:00 | 00:44:26 | 00:00:00 | |
| OE3JTB-15 | 2026-09-04 02:30:48 | 46.92621 | 15.54422 | 151° | 68km/h | 5163m | 4.7m/s | -6.6°C | 88.1% | 0hPa | 2.9V | 00:00:00 | 00:00:00 | 00:00:00 | |
| OE8JPQ-2 | 2026-09-04 02:30:33 | 46.92851 | 15.54228 | 152° | 68km/h | 5103m | 2.7m/s | 0°C | 0% | 0hPa | 2.9V | 00:00:00 | 00:00:00 | 08:30:00 | |
| OM5KV | 2026-09-04 02:30:30 | 46.92893 | 15.54194 | 151° | 64km/h | 5092m | 3.5m/s | -6.2°C | 0% | 0hPa | 2.9V | 00:00:00 | 00:00:00 | 00:00:00 | |
| OM5KV | 2026-09-04 02:30:24 | 46.92969 | 15.54134 | 153° | 68km/h | 5073m | 3.7m/s | -6.0°C | 0% | 0hPa | 2.9V | 00:00:00 | 00:00:00 | 00:00:00 | |
| OM5KV | 2026-09-04 02:30:19 | 46.93057 | 15.54067 | 153° | 66km/h | 5050m | 3.6m/s | -6.0°C | 0% | 0hPa | 2.9V | 00:00:00 | 00:00:00 | 00:00:00 | |
| OM5KV | 2026-09-04 02:30:18 | 46.93072 | 15.54055 | 153° | 68km/h | 5045m | 4.7m/s | -6.0°C | 0% | 0hPa | 2.9V | 00:00:00 | 00:00:00 | 00:00:00 | |
| OM5KV | 2026-09-04 02:30:16 | 46.93103 | 15.54030 | 150° | 69km/h | 5037m | 4.0m/s | -5.9°C | 83.7% | 0hPa | 2.9V | 00:00:00 | 00:00:00 | 00:00:00 | |
| OM5KV | 2026-09-04 02:30:13 | 46.93149 | 15.53991 | 150° | 68km/h | 5026m | 4.4m/s | -5.8°C | 0% | 0hPa | 2.9V | 00:00:00 | 00:00:00 | 00:00:00 | |
| OM5KV | 2026-09-04 02:30:10 | 46.93192 | 15.53951 | 148° | 66km/h | 5014m | 3.4m/s | -5.7°C | 83.3% | 0hPa | 2.9V | 00:00:00 | 00:00:00 | 00:00:00 | |
| OE3JTB-15 | 2026-09-04 02:29:50 | 46.93490 | 15.53694 | 150° | 71km/h | 4939m | 4.1m/s | -5.4°C | 79.8% | 0hPa | 2.9V | 00:00:00 | 00:43:22 | 00:00:00 | |
| OE8JPQ-2 | 2026-09-04 02:29:49 | 46.93505 | 15.53681 | 149° | 69km/h | 4935m | 3.4m/s | 0°C | 0% | 0hPa | 2.9V | 00:00:00 | 00:43:21 | 00:00:00 | |
| OM5KV | 2026-09-04 02:29:46 | 46.93550 | 15.53642 | 151° | 71km/h | 4923m | 5.2m/s | -5.3°C | 0% | 0hPa | 2.9V | 00:00:00 | 00:00:00 | 00:00:00 | |
| OM5KV | 2026-09-04 02:29:45 | 46.93566 | 15.53629 | 152° | 71km/h | 4919m | 4.6m/s | -5.3°C | 0% | 0hPa | 2.9V | 00:00:00 | 00:00:00 | 00:00:00 | |
| OM5KV | 2026-09-04 02:29:40 | 46.93647 | 15.53560 | 145° | 71km/h | 4899m | 3.4m/s | -5.1°C | 0% | 0hPa | 2.9V | 00:00:00 | 00:00:00 | 00:00:00 | |
| OM5KV | 2026-09-04 02:29:39 | 46.93661 | 15.53545 | 144° | 71km/h | 4895m | 4.9m/s | -5.0°C | 0% | 0hPa | 2.9V | 00:00:00 | 00:00:00 | 00:00:00 | |
| OE3JTB-15 | 2026-09-04 02:29:21 | 46.93931 | 15.53292 | 144° | 64km/h | 4801m | 6.0m/s | -4.2°C | 66.8% | 0hPa | 2.9V | 00:00:00 | 00:00:00 | 00:00:00 | |
| OM5KV | 2026-09-04 02:29:18 | 46.93979 | 15.53246 | 147° | 77km/h | 4785m | 4.8m/s | -4.1°C | 0% | 0hPa | 0V | 00:00:00 | 00:00:00 | 00:00:00 | |
| S52SK | 2026-09-04 02:29:16 | 46.94008 | 15.53214 | 145° | 68km/h | 4775m | 4.2m/s | -4.0°C | 66.1% | 0hPa | 0V | 00:00:00 | 00:00:00 | 00:00:00 | |
| OM5KV | 2026-09-04 02:29:12 | 46.94049 | 15.53176 | 150° | 62km/h | 4756m | 6.4m/s | -3.9°C | 0% | 0hPa | 0V | 00:00:00 | 00:00:00 | 00:00:00 | |
| OE8JPQ-2 | 2026-09-04 02:28:55 | 46.94301 | 15.52963 | 140° | 55km/h | 4653m | 8.0m/s | 0°C | 0% | 0hPa | 0V | 00:00:00 | 00:00:00 | 00:00:00 | |
| OE3JTB-15 | 2026-09-04 02:28:51 | 46.94351 | 15.52923 | 160° | 47km/h | 4629m | 5.7m/s | -3.0°C | 45.6% | 0hPa | 0V | 00:00:00 | 00:00:00 | 00:00:00 | |
| OM5KV | 2026-09-04 02:28:50 | 46.94366 | 15.52915 | 161° | 62km/h | 4623m | 7.2m/s | 0°C | 0% | 0hPa | 0V | 00:00:00 | 00:00:00 | 00:00:00 | |
| OE8JPQ-2 | 2026-09-04 02:28:32 | 46.94551 | 15.52751 | 153° | 42km/h | 4515m | 4.6m/s | 0°C | 0% | 0hPa | 0V | 00:00:00 | 00:00:00 | 00:00:00 | |
| OE3JTB-15 | 2026-09-04 02:28:22 | 46.94638 | 15.52661 | 148° | 42km/h | 4470m | 3.2m/s | 0°C | 0% | 0hPa | 0V | 00:00:00 | 00:41:54 | 00:00:00 | |
| OE8JPQ-2 | 2026-09-04 02:28:12 | 46.94731 | 15.52590 | 148° | 42km/h | 4419m | 4.5m/s | 0°C | 0% | 0hPa | 0V | 00:00:00 | 00:41:44 | 00:00:00 | |
| OE3JTB-15 | 2026-09-04 02:27:53 | 46.94912 | 15.52451 | 159° | 40km/h | 4342m | 5.9m/s | 0°C | 0% | 0hPa | 0V | 00:00:00 | 00:00:00 | 00:00:00 | |
| OE8JPQ-2 | 2026-09-04 02:27:52 | 46.94921 | 15.52446 | 155° | 42km/h | 4335m | 6.8m/s | 0°C | 0% | 0hPa | 0V | 00:00:00 | 00:00:00 | 00:00:00 | |
| OE8JPQ-2 | 2026-09-04 02:27:07 | 46.95355 | 15.52166 | 152° | 42km/h | 4135m | 5.8m/s | 0°C | 0% | 0hPa | 0V | 00:00:00 | 00:00:00 | 00:00:00 | |
| S52SK | 2026-09-04 02:26:45 | 46.95559 | 15.51955 | 146° | 53km/h | 4024m | 5.7m/s | -2.5°C | 100.0% | 0hPa | 0V | 00:00:00 | 00:00:00 | 00:00:00 | |
| S52SK | 2026-09-04 02:26:39 | 46.95621 | 15.51902 | 153° | 47km/h | 3994m | 3.3m/s | -2.3°C | 0% | 0hPa | 0V | 00:00:00 | 00:00:00 | 00:00:00 | |
| OE8JPQ-2 | 2026-09-04 02:26:18 | 46.95791 | 15.51692 | 146° | 42km/h | 3891m | 5.1m/s | 0°C | 0% | 0hPa | 0V | 00:00:00 | 00:39:50 | 00:00:00 | |
| OE8JPQ-2 | 2026-09-04 02:25:56 | 46.95985 | 15.51473 | 130° | 49km/h | 3784m | 2.9m/s | 0°C | 0% | 0hPa | 0V | 00:00:00 | 00:00:00 | 00:00:00 | |
| S52SK | 2026-09-04 02:25:32 | 46.96188 | 15.51228 | 146° | 42km/h | 3673m | 4.8m/s | -0.0°C | 92.9% | 0hPa | 0V | 00:00:00 | 00:00:00 | 00:00:00 | |
| S52SK | 2026-09-04 02:25:27 | 46.96230 | 15.51178 | 137° | 42km/h | 3653m | 4.6m/s | 0.1°C | 92.5% | 0hPa | 0V | 00:00:00 | 00:00:00 | 00:00:00 | |
| S52SK | 2026-09-04 02:25:21 | 46.96276 | 15.51122 | 150° | 44km/h | 3631m | 4.3m/s | 0.4°C | 91.7% | 0hPa | 0V | 00:00:00 | 00:00:00 | 00:00:00 | |
| S52SK | 2026-09-04 02:24:17 | 46.96797 | 15.50458 | 129° | 37km/h | 3329m | 4.4m/s | 3.1°C | 79.6% | 0hPa | 0V | 00:00:00 | 00:00:00 | 00:00:00 | |
| S52SK | 2026-09-04 02:24:11 | 46.96845 | 15.50405 | 142° | 51km/h | 3297m | 5.8m/s | 3.4°C | 78.3% | 0hPa | 0V | 00:00:00 | 00:00:00 | 00:00:00 | |
| S52SK | 2026-09-04 02:23:08 | 46.97395 | 15.49714 | 142° | 49km/h | 2994m | 4.1m/s | 0°C | 0% | 0hPa | 0V | 00:00:00 | 00:00:00 | 00:00:00 | |
| S52SK | 2026-09-04 02:23:02 | 46.97454 | 15.49648 | 143° | 49km/h | 2971m | 3.4m/s | 0°C | 0% | 0hPa | 0V | 00:00:00 | 00:00:00 | 00:00:00 | |
| S52SK | 2026-09-04 02:21:58 | 46.98098 | 15.48851 | 132° | 51km/h | 2713m | 3.6m/s | 0°C | 0% | 0hPa | 0V | 00:00:00 | 00:00:00 | 00:00:00 | |
| S52SK | 2026-09-04 02:21:53 | 46.98140 | 15.48787 | 134° | 46km/h | 2683m | 8.3m/s | 0°C | 0% | 0hPa | 0V | 00:00:00 | 00:00:00 | 00:00:00 | |
| S52SK | 2026-09-04 02:20:49 | 46.98445 | 15.48076 | 111° | 44km/h | 2341m | 7.4m/s | 0°C | 0% | 0hPa | 0V | 00:00:00 | 00:00:00 | 00:00:00 | |
| S52SK | 2026-09-04 02:20:43 | 46.98466 | 15.47990 | 104° | 38km/h | 2314m | 4.6m/s | 0°C | 0% | 0hPa | 0V | 00:00:00 | 00:00:00 | 00:00:00 | |
| S52SK | 2026-09-04 02:19:40 | 46.98715 | 15.47132 | 120° | 42km/h | 1987m | 5.4m/s | 0°C | 0% | 0hPa | 0V | 00:00:00 | 00:00:00 | 00:00:00 | |
| S52SK | 2026-09-04 02:19:34 | 46.98742 | 15.47038 | 106° | 37km/h | 1955m | 4.0m/s | 0°C | 0% | 0hPa | 0V | 00:00:00 | 00:00:00 | 00:00:00 | |
| S52SK | 2026-09-04 02:18:31 | 46.98996 | 15.46116 | 121° | 46km/h | 1587m | 5.7m/s | 0°C | 0% | 0hPa | 0V | 00:00:00 | 00:00:00 | 00:00:00 | |
| S52SK | 2026-09-04 02:18:25 | 46.99021 | 15.46036 | 117° | 31km/h | 1554m | 6.9m/s | 0°C | 0% | 0hPa | 0V | 00:00:00 | 00:00:00 | 00:00:00 | |
| S52SK | 2026-09-04 02:17:21 | 46.99347 | 15.45238 | 145° | 35km/h | 1141m | 4.7m/s | 0°C | 0% | 0hPa | 0V | 00:00:00 | 00:00:00 | 00:00:00 | |
| S52SK | 2026-09-04 02:17:16 | 46.99375 | 15.45171 | 117° | 38km/h | 1109m | 4.8m/s | 0°C | 0% | 0hPa | 0V | 00:00:00 | 00:00:00 | 00:00:00 | |
| S52SK | 2026-09-04 02:16:15 | 46.99504 | 15.44850 | 72° | 5km/h | 841m | 7.0m/s | 0°C | 0% | 0hPa | 0V | 00:00:00 | 00:00:00 | 00:00:00 | |
| S52SK | 2026-09-04 02:16:10 | 46.99496 | 15.44834 | 68° | 15km/h | 801m | 7.1m/s | 0°C | 0% | 0hPa | 0V | 00:00:00 | 00:00:00 | 00:00:00 | |
| S52SK | 2026-09-04 02:16:04 | 46.99479 | 15.44822 | 79° | 2km/h | 769m | 7.2m/s | 0°C | 0% | 0hPa | 0V | 00:00:00 | 00:00:00 | 00:00:00 |